<?xml version="1.0" encoding="UTF-8" standalone="no" ?>
<gpx xmlns="http://www.topografix.com/GPX/1/1" xmlns:xsi="http://www.w3.org/2001/XMLSchema-instance" xsi:schemaLocation="http://www.topografix.com/GPX/1/1 http://www.topografix.com/GPX/1/1/gpx.xsd" version="1.1" creator="VisuGPX - https://www.visugpx.com">
  <metadata>
    <name>Pic et tour du Canigou </name>
    <desc><![CDATA[Trek effectué du dimanche 30/08/2020 vers 13h au jeudi 3 vers 10h.]]></desc>
  </metadata>
  <trk>
    <name><![CDATA[Pic et tour du Canigou _1]]></name>
    <extensions>
      <line xmlns="http://www.topografix.com/GPX/gpx_style/0/2">
        <color>0000FF</color>
        <opacity>1</opacity>
        <width>4</width>
      </line>
    </extensions>
    <trkseg>
      <trkpt lat="42.51422" lon="2.38088">
        <ele>1137.1</ele>
        <time>2020-08-30T11:00:00.000Z</time>
      </trkpt>
      <trkpt lat="42.51421" lon="2.38088">
        <ele>1137.1</ele>
        <time>2020-08-30T11:00:00.878Z</time>
      </trkpt>
      <trkpt lat="42.51423" lon="2.38089">
        <ele>1137.3</ele>
        <time>2020-08-30T11:00:05.472Z</time>
      </trkpt>
      <trkpt lat="42.51435" lon="2.38097">
        <ele>1138.4</ele>
        <time>2020-08-30T11:00:31.517Z</time>
      </trkpt>
      <trkpt lat="42.51444" lon="2.38104">
        <ele>1138.6</ele>
        <time>2020-08-30T11:00:42.586Z</time>
      </trkpt>
      <trkpt lat="42.51449" lon="2.38105">
        <ele>1138.4</ele>
        <time>2020-08-30T11:00:43.746Z</time>
      </trkpt>
      <trkpt lat="42.51455" lon="2.38106">
        <ele>1137.7</ele>
        <time>2020-08-30T11:00:44.951Z</time>
      </trkpt>
      <trkpt lat="42.5147" lon="2.38104">
        <ele>1135.1</ele>
        <time>2020-08-30T11:00:47.953Z</time>
      </trkpt>
      <trkpt lat="42.51482" lon="2.38103">
        <ele>1132.9</ele>
        <time>2020-08-30T11:00:50.349Z</time>
      </trkpt>
      <trkpt lat="42.51483" lon="2.38103">
        <ele>1132.6</ele>
        <time>2020-08-30T11:00:50.548Z</time>
      </trkpt>
      <trkpt lat="42.51491" lon="2.38103">
        <ele>1131.4</ele>
        <time>2020-08-30T11:00:52.142Z</time>
      </trkpt>
      <trkpt lat="42.51494" lon="2.38102">
        <ele>1130.7</ele>
        <time>2020-08-30T11:00:52.757Z</time>
      </trkpt>
      <trkpt lat="42.51498" lon="2.38101">
        <ele>1130</ele>
        <time>2020-08-30T11:00:53.567Z</time>
      </trkpt>
      <trkpt lat="42.51497" lon="2.38111">
        <ele>1132.5</ele>
        <time>2020-08-30T11:01:18.773Z</time>
        <extensions>
          <visugpx:TrkExtension xmlns:visugpx="https://www.visugpx.com/editgpx/">
            <visugpx:node>1</visugpx:node>
            </visugpx:TrkExtension>
        </extensions>
      </trkpt>
      <trkpt lat="42.51483" lon="2.38116">
        <ele>1134.7</ele>
        <time>2020-08-30T11:02:07.828Z</time>
      </trkpt>
      <trkpt lat="42.51475" lon="2.3812">
        <ele>1136.2</ele>
        <time>2020-08-30T11:02:36.718Z</time>
      </trkpt>
      <trkpt lat="42.51472" lon="2.38124">
        <ele>1137.2</ele>
        <time>2020-08-30T11:02:50.971Z</time>
      </trkpt>
      <trkpt lat="42.51469" lon="2.3813">
        <ele>1138.2</ele>
        <time>2020-08-30T11:03:09.080Z</time>
      </trkpt>
      <trkpt lat="42.51467" lon="2.38137">
        <ele>1139.1</ele>
        <time>2020-08-30T11:03:27.831Z</time>
      </trkpt>
      <trkpt lat="42.51468" lon="2.38147">
        <ele>1139.6</ele>
        <time>2020-08-30T11:03:40.710Z</time>
      </trkpt>
      <trkpt lat="42.51468" lon="2.38155">
        <ele>1139.8</ele>
        <time>2020-08-30T11:03:48.225Z</time>
      </trkpt>
      <trkpt lat="42.51469" lon="2.38164">
        <ele>1140</ele>
        <time>2020-08-30T11:03:56.333Z</time>
      </trkpt>
      <trkpt lat="42.51468" lon="2.38171">
        <ele>1150.7</ele>
        <time>2020-08-30T11:04:14.142Z</time>
      </trkpt>
      <trkpt lat="42.51468" lon="2.38184">
        <ele>1152</ele>
        <time>2020-08-30T11:04:46.612Z</time>
      </trkpt>
      <trkpt lat="42.51465" lon="2.38204">
        <ele>1155.1</ele>
        <time>2020-08-30T11:05:37.589Z</time>
      </trkpt>
      <trkpt lat="42.51461" lon="2.38231">
        <ele>1158.2</ele>
        <time>2020-08-30T11:06:46.375Z</time>
      </trkpt>
      <trkpt lat="42.51454" lon="2.38287">
        <ele>1170.5</ele>
        <time>2020-08-30T11:09:08.242Z</time>
      </trkpt>
      <trkpt lat="42.5145" lon="2.38336">
        <ele>1183.6</ele>
        <time>2020-08-30T11:11:11.376Z</time>
      </trkpt>
      <trkpt lat="42.51451" lon="2.38366">
        <ele>1184.7</ele>
        <time>2020-08-30T11:11:45.311Z</time>
      </trkpt>
      <trkpt lat="42.51468" lon="2.38405">
        <ele>1183.1</ele>
        <time>2020-08-30T11:11:52.416Z</time>
      </trkpt>
      <trkpt lat="42.51484" lon="2.38443">
        <ele>1195.5</ele>
        <time>2020-08-30T11:13:41.721Z</time>
      </trkpt>
      <trkpt lat="42.51492" lon="2.38474">
        <ele>1200.1</ele>
        <time>2020-08-30T11:15:03.757Z</time>
      </trkpt>
      <trkpt lat="42.51496" lon="2.38499">
        <ele>1196.9</ele>
        <time>2020-08-30T11:15:07.514Z</time>
      </trkpt>
      <trkpt lat="42.51508" lon="2.38549">
        <ele>1196.2</ele>
        <time>2020-08-30T11:15:18.714Z</time>
      </trkpt>
      <trkpt lat="42.51511" lon="2.38577">
        <ele>1205.4</ele>
        <time>2020-08-30T11:16:29.383Z</time>
      </trkpt>
      <trkpt lat="42.51512" lon="2.38586">
        <ele>1210.7</ele>
        <time>2020-08-30T11:16:52.116Z</time>
      </trkpt>
      <trkpt lat="42.51513" lon="2.38601">
        <ele>1208.4</ele>
        <time>2020-08-30T11:16:54.328Z</time>
      </trkpt>
      <trkpt lat="42.51516" lon="2.38614">
        <ele>1206.9</ele>
        <time>2020-08-30T11:16:56.328Z</time>
      </trkpt>
      <trkpt lat="42.51527" lon="2.38631">
        <ele>1205.7</ele>
        <time>2020-08-30T11:16:59.650Z</time>
      </trkpt>
      <trkpt lat="42.51537" lon="2.38644">
        <ele>1204.6</ele>
        <time>2020-08-30T11:17:02.409Z</time>
      </trkpt>
      <trkpt lat="42.51539" lon="2.38648">
        <ele>1204.3</ele>
        <time>2020-08-30T11:17:03.119Z</time>
      </trkpt>
      <trkpt lat="42.5154" lon="2.38659">
        <ele>1204.4</ele>
        <time>2020-08-30T11:17:11.202Z</time>
      </trkpt>
      <trkpt lat="42.51541" lon="2.38665">
        <ele>1204.5</ele>
        <time>2020-08-30T11:17:16.194Z</time>
      </trkpt>
      <trkpt lat="42.51539" lon="2.38672">
        <ele>1200</ele>
        <time>2020-08-30T11:17:17.296Z</time>
      </trkpt>
      <trkpt lat="42.51537" lon="2.38678">
        <ele>1200.1</ele>
        <time>2020-08-30T11:17:22.552Z</time>
      </trkpt>
      <trkpt lat="42.51533" lon="2.38683">
        <ele>1200.6</ele>
        <time>2020-08-30T11:17:34.072Z</time>
      </trkpt>
      <trkpt lat="42.51527" lon="2.38689">
        <ele>1201.2</ele>
        <time>2020-08-30T11:17:48.381Z</time>
      </trkpt>
      <trkpt lat="42.51524" lon="2.38689">
        <ele>1201.8</ele>
        <time>2020-08-30T11:17:58.546Z</time>
      </trkpt>
      <trkpt lat="42.51521" lon="2.38689">
        <ele>1202.7</ele>
        <time>2020-08-30T11:18:08.711Z</time>
      </trkpt>
      <trkpt lat="42.51515" lon="2.38687">
        <ele>1204.5</ele>
        <time>2020-08-30T11:18:29.647Z</time>
      </trkpt>
      <trkpt lat="42.51503" lon="2.38681">
        <ele>1209.7</ele>
        <time>2020-08-30T11:19:12.983Z</time>
      </trkpt>
      <trkpt lat="42.51497" lon="2.38678">
        <ele>1221.6</ele>
        <time>2020-08-30T11:19:34.650Z</time>
      </trkpt>
      <trkpt lat="42.51491" lon="2.38678">
        <ele>1222.1</ele>
        <time>2020-08-30T11:19:46.442Z</time>
      </trkpt>
      <trkpt lat="42.51479" lon="2.38682">
        <ele>1223.9</ele>
        <time>2020-08-30T11:20:28.314Z</time>
      </trkpt>
      <trkpt lat="42.51467" lon="2.38689">
        <ele>1225.7</ele>
        <time>2020-08-30T11:21:12.575Z</time>
      </trkpt>
      <trkpt lat="42.5146" lon="2.38692">
        <ele>1226.7</ele>
        <time>2020-08-30T11:21:37.450Z</time>
      </trkpt>
      <trkpt lat="42.51453" lon="2.38693">
        <ele>1228</ele>
        <time>2020-08-30T11:22:01.301Z</time>
      </trkpt>
      <trkpt lat="42.5144" lon="2.38693">
        <ele>1230.9</ele>
        <time>2020-08-30T11:22:45.351Z</time>
      </trkpt>
      <trkpt lat="42.51428" lon="2.38697">
        <ele>1232.4</ele>
        <time>2020-08-30T11:23:21.014Z</time>
      </trkpt>
      <trkpt lat="42.51408" lon="2.38713">
        <ele>1251.6</ele>
        <time>2020-08-30T11:24:39.689Z</time>
      </trkpt>
      <trkpt lat="42.51398" lon="2.38723">
        <ele>1250.8</ele>
        <time>2020-08-30T11:24:41.996Z</time>
        <extensions>
          <visugpx:TrkExtension xmlns:visugpx="https://www.visugpx.com/editgpx/">
            <visugpx:node>2</visugpx:node>
            </visugpx:TrkExtension>
        </extensions>
      </trkpt>
      <trkpt lat="42.51387" lon="2.38732">
        <ele>1251.7</ele>
        <time>2020-08-30T11:25:04.715Z</time>
      </trkpt>
      <trkpt lat="42.51369" lon="2.38753">
        <ele>1237.5</ele>
        <time>2020-08-30T11:25:09.445Z</time>
      </trkpt>
      <trkpt lat="42.51352" lon="2.38774">
        <ele>1240.2</ele>
        <time>2020-08-30T11:26:12.719Z</time>
      </trkpt>
      <trkpt lat="42.51337" lon="2.3879">
        <ele>1238.3</ele>
        <time>2020-08-30T11:26:16.521Z</time>
      </trkpt>
      <trkpt lat="42.51322" lon="2.38804">
        <ele>1263.3</ele>
        <time>2020-08-30T11:27:18.215Z</time>
      </trkpt>
      <trkpt lat="42.51312" lon="2.38812">
        <ele>1263.2</ele>
        <time>2020-08-30T11:27:21.999Z</time>
      </trkpt>
      <trkpt lat="42.513" lon="2.38817">
        <ele>1266.6</ele>
        <time>2020-08-30T11:28:04.535Z</time>
      </trkpt>
      <trkpt lat="42.51284" lon="2.38825">
        <ele>1271.6</ele>
        <time>2020-08-30T11:29:02.316Z</time>
      </trkpt>
      <trkpt lat="42.51275" lon="2.38833">
        <ele>1274.1</ele>
        <time>2020-08-30T11:29:38.776Z</time>
      </trkpt>
      <trkpt lat="42.51269" lon="2.38843">
        <ele>1264.9</ele>
        <time>2020-08-30T11:29:40.669Z</time>
      </trkpt>
      <trkpt lat="42.5126" lon="2.38866">
        <ele>1261.5</ele>
        <time>2020-08-30T11:29:44.493Z</time>
      </trkpt>
      <trkpt lat="42.51255" lon="2.38882">
        <ele>1260.2</ele>
        <time>2020-08-30T11:29:47.045Z</time>
      </trkpt>
      <trkpt lat="42.51247" lon="2.38894">
        <ele>1286.9</ele>
        <time>2020-08-30T11:30:27.459Z</time>
      </trkpt>
      <trkpt lat="42.51241" lon="2.38901">
        <ele>1285</ele>
        <time>2020-08-30T11:30:29.035Z</time>
      </trkpt>
      <trkpt lat="42.5123" lon="2.38913">
        <ele>1287.4</ele>
        <time>2020-08-30T11:31:16.865Z</time>
      </trkpt>
      <trkpt lat="42.51215" lon="2.3893">
        <ele>1287.5</ele>
        <time>2020-08-30T11:31:34.880Z</time>
      </trkpt>
      <trkpt lat="42.51175" lon="2.38968">
        <ele>1294.9</ele>
        <time>2020-08-30T11:34:20.349Z</time>
      </trkpt>
      <trkpt lat="42.51172" lon="2.38971">
        <ele>1295.1</ele>
        <time>2020-08-30T11:34:26.215Z</time>
      </trkpt>
      <trkpt lat="42.51157" lon="2.39007">
        <ele>1312.2</ele>
        <time>2020-08-30T11:36:09.506Z</time>
      </trkpt>
      <trkpt lat="42.5115" lon="2.39045">
        <ele>1321.9</ele>
        <time>2020-08-30T11:37:47.341Z</time>
      </trkpt>
      <trkpt lat="42.51139" lon="2.39079">
        <ele>1323</ele>
        <time>2020-08-30T11:38:25.395Z</time>
      </trkpt>
      <trkpt lat="42.51151" lon="2.39082">
        <ele>1318.2</ele>
        <time>2020-08-30T11:38:27.826Z</time>
      </trkpt>
      <trkpt lat="42.51163" lon="2.39085">
        <ele>1314.2</ele>
        <time>2020-08-30T11:38:30.257Z</time>
      </trkpt>
      <trkpt lat="42.51163" lon="2.39093">
        <ele>1320.1</ele>
        <time>2020-08-30T11:38:50.239Z</time>
      </trkpt>
      <trkpt lat="42.5114" lon="2.39111">
        <ele>1335.1</ele>
        <time>2020-08-30T11:40:20.213Z</time>
      </trkpt>
      <trkpt lat="42.51115" lon="2.39128">
        <ele>1342.3</ele>
        <time>2020-08-30T11:41:54.972Z</time>
      </trkpt>
      <trkpt lat="42.51099" lon="2.39129">
        <ele>1344.5</ele>
        <time>2020-08-30T11:42:49.245Z</time>
      </trkpt>
      <trkpt lat="42.5109" lon="2.39134">
        <ele>1346.4</ele>
        <time>2020-08-30T11:43:22.200Z</time>
      </trkpt>
      <trkpt lat="42.5109" lon="2.39144">
        <ele>1348.9</ele>
        <time>2020-08-30T11:43:47.178Z</time>
      </trkpt>
      <trkpt lat="42.511" lon="2.39163">
        <ele>1351.3</ele>
        <time>2020-08-30T11:44:45.492Z</time>
      </trkpt>
      <trkpt lat="42.51117" lon="2.39178">
        <ele>1369</ele>
        <time>2020-08-30T11:45:54.209Z</time>
      </trkpt>
      <trkpt lat="42.51127" lon="2.39189">
        <ele>1370.3</ele>
        <time>2020-08-30T11:46:23.904Z</time>
      </trkpt>
      <trkpt lat="42.51123" lon="2.39198">
        <ele>1372.5</ele>
        <time>2020-08-30T11:46:50.154Z</time>
      </trkpt>
      <trkpt lat="42.51103" lon="2.39211">
        <ele>1377.2</ele>
        <time>2020-08-30T11:48:05.301Z</time>
      </trkpt>
      <trkpt lat="42.51091" lon="2.39215">
        <ele>1379.2</ele>
        <time>2020-08-30T11:48:47.173Z</time>
      </trkpt>
      <trkpt lat="42.51091" lon="2.39224">
        <ele>1382.6</ele>
        <time>2020-08-30T11:49:09.653Z</time>
      </trkpt>
      <trkpt lat="42.51097" lon="2.39232">
        <ele>1385.1</ele>
        <time>2020-08-30T11:49:38.160Z</time>
      </trkpt>
      <trkpt lat="42.51114" lon="2.39233">
        <ele>1381.9</ele>
        <time>2020-08-30T11:49:41.550Z</time>
      </trkpt>
      <trkpt lat="42.5113" lon="2.39237">
        <ele>1381</ele>
        <time>2020-08-30T11:49:44.799Z</time>
      </trkpt>
      <trkpt lat="42.51152" lon="2.39249">
        <ele>1384.5</ele>
        <time>2020-08-30T11:51:05.146Z</time>
      </trkpt>
      <trkpt lat="42.51164" lon="2.39263">
        <ele>1398.2</ele>
        <time>2020-08-30T11:51:58.776Z</time>
      </trkpt>
      <trkpt lat="42.51167" lon="2.39269">
        <ele>1399.6</ele>
        <time>2020-08-30T11:52:16.885Z</time>
      </trkpt>
      <trkpt lat="42.5117" lon="2.39279">
        <ele>1402.4</ele>
        <time>2020-08-30T11:52:43.853Z</time>
      </trkpt>
      <trkpt lat="42.51174" lon="2.39293">
        <ele>1405.5</ele>
        <time>2020-08-30T11:53:21.357Z</time>
      </trkpt>
      <trkpt lat="42.51177" lon="2.39303">
        <ele>1407.5</ele>
        <time>2020-08-30T11:53:48.324Z</time>
      </trkpt>
      <trkpt lat="42.51175" lon="2.39314">
        <ele>1409.4</ele>
        <time>2020-08-30T11:54:16.623Z</time>
      </trkpt>
      <trkpt lat="42.51169" lon="2.39321">
        <ele>1410.9</ele>
        <time>2020-08-30T11:54:43.438Z</time>
      </trkpt>
      <trkpt lat="42.51161" lon="2.39321">
        <ele>1411.9</ele>
        <time>2020-08-30T11:55:07.601Z</time>
      </trkpt>
      <trkpt lat="42.5115" lon="2.39318">
        <ele>1411.4</ele>
        <time>2020-08-30T11:55:10.061Z</time>
      </trkpt>
      <trkpt lat="42.51132" lon="2.39311">
        <ele>1411.6</ele>
        <time>2020-08-30T11:55:28.294Z</time>
      </trkpt>
      <trkpt lat="42.51118" lon="2.39312">
        <ele>1413.3</ele>
        <time>2020-08-30T11:56:08.691Z</time>
      </trkpt>
      <trkpt lat="42.51111" lon="2.39312">
        <ele>1414.5</ele>
        <time>2020-08-30T11:56:32.411Z</time>
      </trkpt>
      <trkpt lat="42.51103" lon="2.39316">
        <ele>1416.9</ele>
        <time>2020-08-30T11:57:01.301Z</time>
      </trkpt>
      <trkpt lat="42.51096" lon="2.39327">
        <ele>1422</ele>
        <time>2020-08-30T11:57:37.599Z</time>
      </trkpt>
      <trkpt lat="42.51097" lon="2.39332">
        <ele>1422.6</ele>
        <time>2020-08-30T11:57:50.540Z</time>
      </trkpt>
      <trkpt lat="42.51103" lon="2.39334">
        <ele>1425</ele>
        <time>2020-08-30T11:58:11.476Z</time>
      </trkpt>
      <trkpt lat="42.51108" lon="2.39336">
        <ele>1423.8</ele>
        <time>2020-08-30T11:58:12.514Z</time>
      </trkpt>
      <trkpt lat="42.5111" lon="2.39338">
        <ele>1423.2</ele>
        <time>2020-08-30T11:58:13.009Z</time>
      </trkpt>
      <trkpt lat="42.51106" lon="2.3934">
        <ele>1423.8</ele>
        <time>2020-08-30T11:58:27.455Z</time>
      </trkpt>
      <trkpt lat="42.51098" lon="2.39343">
        <ele>1425.5</ele>
        <time>2020-08-30T11:58:55.579Z</time>
      </trkpt>
      <trkpt lat="42.5109" lon="2.39346">
        <ele>1426.7</ele>
        <time>2020-08-30T11:59:23.704Z</time>
      </trkpt>
      <trkpt lat="42.51083" lon="2.39345">
        <ele>1433.8</ele>
        <time>2020-08-30T11:59:47.554Z</time>
      </trkpt>
      <trkpt lat="42.51076" lon="2.39343">
        <ele>1434.1</ele>
        <time>2020-08-30T11:59:57.758Z</time>
      </trkpt>
      <trkpt lat="42.51071" lon="2.39347">
        <ele>1434.9</ele>
        <time>2020-08-30T12:00:17.428Z</time>
      </trkpt>
      <trkpt lat="42.51065" lon="2.39351">
        <ele>1435.6</ele>
        <time>2020-08-30T12:00:33.435Z</time>
      </trkpt>
      <trkpt lat="42.51057" lon="2.39355">
        <ele>1436.5</ele>
        <time>2020-08-30T12:00:54.028Z</time>
      </trkpt>
      <trkpt lat="42.5105" lon="2.39355">
        <ele>1437.3</ele>
        <time>2020-08-30T12:01:12.606Z</time>
      </trkpt>
      <trkpt lat="42.51045" lon="2.39355">
        <ele>1437.8</ele>
        <time>2020-08-30T12:01:24.029Z</time>
      </trkpt>
      <trkpt lat="42.51043" lon="2.39359">
        <ele>1438</ele>
        <time>2020-08-30T12:01:29.731Z</time>
      </trkpt>
      <trkpt lat="42.51037" lon="2.39359">
        <ele>1438.6</ele>
        <time>2020-08-30T12:01:43.438Z</time>
      </trkpt>
      <trkpt lat="42.51026" lon="2.39365">
        <ele>1439.6</ele>
        <time>2020-08-30T12:02:06.938Z</time>
      </trkpt>
      <trkpt lat="42.51022" lon="2.39367">
        <ele>1440</ele>
        <time>2020-08-30T12:02:16.125Z</time>
        <extensions>
          <visugpx:TrkExtension xmlns:visugpx="https://www.visugpx.com/editgpx/">
            <visugpx:node>4</visugpx:node>
            </visugpx:TrkExtension>
        </extensions>
      </trkpt>
      <trkpt lat="42.51015" lon="2.39369">
        <ele>1440.6</ele>
        <time>2020-08-30T12:02:30.248Z</time>
      </trkpt>
      <trkpt lat="42.51003" lon="2.39368">
        <ele>1441.3</ele>
        <time>2020-08-30T12:02:49.768Z</time>
      </trkpt>
      <trkpt lat="42.50993" lon="2.39371">
        <ele>1458.2</ele>
        <time>2020-08-30T12:03:24.472Z</time>
      </trkpt>
      <trkpt lat="42.50982" lon="2.39376">
        <ele>1459.7</ele>
        <time>2020-08-30T12:04:01.565Z</time>
      </trkpt>
      <trkpt lat="42.50961" lon="2.39379">
        <ele>1463.7</ele>
        <time>2020-08-30T12:05:13.117Z</time>
      </trkpt>
      <trkpt lat="42.50962" lon="2.39393">
        <ele>1463.4</ele>
        <time>2020-08-30T12:05:15.767Z</time>
      </trkpt>
      <trkpt lat="42.50956" lon="2.39406">
        <ele>1464.7</ele>
        <time>2020-08-30T12:05:46.011Z</time>
      </trkpt>
      <trkpt lat="42.50944" lon="2.39429">
        <ele>1459.2</ele>
        <time>2020-08-30T12:05:50.149Z</time>
      </trkpt>
      <trkpt lat="42.50925" lon="2.3947">
        <ele>1454.7</ele>
        <time>2020-08-30T12:05:57.262Z</time>
      </trkpt>
      <trkpt lat="42.50897" lon="2.39524">
        <ele>1459.7</ele>
        <time>2020-08-30T12:07:51.492Z</time>
      </trkpt>
      <trkpt lat="42.50885" lon="2.39544">
        <ele>1459.2</ele>
        <time>2020-08-30T12:07:56.490Z</time>
      </trkpt>
      <trkpt lat="42.50863" lon="2.39547">
        <ele>1461.9</ele>
        <time>2020-08-30T12:09:00.877Z</time>
      </trkpt>
      <trkpt lat="42.50837" lon="2.39556">
        <ele>1461.5</ele>
        <time>2020-08-30T12:09:08.936Z</time>
      </trkpt>
      <trkpt lat="42.50818" lon="2.3956">
        <ele>1472</ele>
        <time>2020-08-30T12:10:14.088Z</time>
      </trkpt>
      <trkpt lat="42.50787" lon="2.3956">
        <ele>1476.3</ele>
        <time>2020-08-30T12:11:59.131Z</time>
      </trkpt>
      <trkpt lat="42.50753" lon="2.39563">
        <ele>1475.7</ele>
        <time>2020-08-30T12:12:09.030Z</time>
      </trkpt>
      <trkpt lat="42.50714" lon="2.3957">
        <ele>1484.4</ele>
        <time>2020-08-30T12:14:22.333Z</time>
      </trkpt>
      <trkpt lat="42.50687" lon="2.39571">
        <ele>1485.2</ele>
        <time>2020-08-30T12:14:54.895Z</time>
      </trkpt>
      <trkpt lat="42.50665" lon="2.39564">
        <ele>1489.6</ele>
        <time>2020-08-30T12:16:11.466Z</time>
      </trkpt>
      <trkpt lat="42.50628" lon="2.39559">
        <ele>1494.6</ele>
        <time>2020-08-30T12:18:17.460Z</time>
      </trkpt>
      <trkpt lat="42.50594" lon="2.39554">
        <ele>1496.3</ele>
        <time>2020-08-30T12:19:09.894Z</time>
      </trkpt>
      <trkpt lat="42.50589" lon="2.39553">
        <ele>1496.5</ele>
        <time>2020-08-30T12:19:16.858Z</time>
      </trkpt>
      <trkpt lat="42.50585" lon="2.39559">
        <ele>1495.8</ele>
        <time>2020-08-30T12:19:18.046Z</time>
      </trkpt>
      <trkpt lat="42.50585" lon="2.39568">
        <ele>1494.8</ele>
        <time>2020-08-30T12:19:19.368Z</time>
      </trkpt>
      <trkpt lat="42.50595" lon="2.39616">
        <ele>1485.9</ele>
        <time>2020-08-30T12:19:26.694Z</time>
      </trkpt>
      <trkpt lat="42.50603" lon="2.39648">
        <ele>1485.7</ele>
        <time>2020-08-30T12:19:34.877Z</time>
        <extensions>
          <visugpx:TrkExtension xmlns:visugpx="https://www.visugpx.com/editgpx/">
            <visugpx:node>5</visugpx:node>
            </visugpx:TrkExtension>
        </extensions>
      </trkpt>
      <trkpt lat="42.50608" lon="2.39669">
        <ele>1478.3</ele>
        <time>2020-08-30T12:19:38.118Z</time>
      </trkpt>
      <trkpt lat="42.50605" lon="2.39679">
        <ele>1478</ele>
        <time>2020-08-30T12:19:39.980Z</time>
      </trkpt>
      <trkpt lat="42.506" lon="2.39679">
        <ele>1480.2</ele>
        <time>2020-08-30T12:19:56.922Z</time>
      </trkpt>
      <trkpt lat="42.50593" lon="2.39671">
        <ele>1486.3</ele>
        <time>2020-08-30T12:20:27.938Z</time>
      </trkpt>
      <trkpt lat="42.50574" lon="2.39649">
        <ele>1502.1</ele>
        <time>2020-08-30T12:21:52.585Z</time>
      </trkpt>
      <trkpt lat="42.50563" lon="2.39638">
        <ele>1504.7</ele>
        <time>2020-08-30T12:22:38.893Z</time>
      </trkpt>
      <trkpt lat="42.50549" lon="2.39631">
        <ele>1507.1</ele>
        <time>2020-08-30T12:23:29.452Z</time>
      </trkpt>
      <trkpt lat="42.50539" lon="2.39634">
        <ele>1508.6</ele>
        <time>2020-08-30T12:24:04.155Z</time>
      </trkpt>
      <trkpt lat="42.5054" lon="2.39638">
        <ele>1508.3</ele>
        <time>2020-08-30T12:24:04.776Z</time>
      </trkpt>
      <trkpt lat="42.50538" lon="2.39646">
        <ele>1508.3</ele>
        <time>2020-08-30T12:24:10.247Z</time>
      </trkpt>
      <trkpt lat="42.5053" lon="2.39654">
        <ele>1509.3</ele>
        <time>2020-08-30T12:24:33.089Z</time>
      </trkpt>
      <trkpt lat="42.50526" lon="2.39651">
        <ele>1509.9</ele>
        <time>2020-08-30T12:24:48.108Z</time>
      </trkpt>
      <trkpt lat="42.50523" lon="2.39637">
        <ele>1510.7</ele>
        <time>2020-08-30T12:25:07.764Z</time>
      </trkpt>
      <trkpt lat="42.50514" lon="2.39616">
        <ele>1514.1</ele>
        <time>2020-08-30T12:26:08.444Z</time>
      </trkpt>
      <trkpt lat="42.50502" lon="2.39623">
        <ele>1514</ele>
        <time>2020-08-30T12:26:12.757Z</time>
      </trkpt>
      <trkpt lat="42.5048" lon="2.39633">
        <ele>1534.5</ele>
        <time>2020-08-30T12:27:31.378Z</time>
      </trkpt>
      <trkpt lat="42.50451" lon="2.39644">
        <ele>1539.1</ele>
        <time>2020-08-30T12:29:13.414Z</time>
      </trkpt>
      <trkpt lat="42.50432" lon="2.39658">
        <ele>1540.5</ele>
        <time>2020-08-30T12:29:50.181Z</time>
      </trkpt>
      <trkpt lat="42.50401" lon="2.39691">
        <ele>1543.5</ele>
        <time>2020-08-30T12:31:03.218Z</time>
      </trkpt>
      <trkpt lat="42.50372" lon="2.39704">
        <ele>1547.2</ele>
        <time>2020-08-30T12:32:31.098Z</time>
      </trkpt>
      <trkpt lat="42.50316" lon="2.39742">
        <ele>1564.6</ele>
        <time>2020-08-30T12:36:03.274Z</time>
      </trkpt>
      <trkpt lat="42.50286" lon="2.39771">
        <ele>1572.3</ele>
        <time>2020-08-30T12:38:08.103Z</time>
      </trkpt>
      <trkpt lat="42.5029" lon="2.39786">
        <ele>1572.5</ele>
        <time>2020-08-30T12:38:20.340Z</time>
      </trkpt>
      <trkpt lat="42.50311" lon="2.39804">
        <ele>1570.2</ele>
        <time>2020-08-30T12:38:25.289Z</time>
      </trkpt>
      <trkpt lat="42.50335" lon="2.39811">
        <ele>1550.1</ele>
        <time>2020-08-30T12:38:30.180Z</time>
      </trkpt>
      <trkpt lat="42.50353" lon="2.39828">
        <ele>1549.6</ele>
        <time>2020-08-30T12:38:36.177Z</time>
      </trkpt>
      <trkpt lat="42.50366" lon="2.39864">
        <ele>1555.2</ele>
        <time>2020-08-30T12:40:16.318Z</time>
      </trkpt>
      <trkpt lat="42.50374" lon="2.39902">
        <ele>1557.7</ele>
        <time>2020-08-30T12:41:14.791Z</time>
      </trkpt>
      <trkpt lat="42.50379" lon="2.39941">
        <ele>1566.5</ele>
        <time>2020-08-30T12:42:53.679Z</time>
      </trkpt>
      <trkpt lat="42.50379" lon="2.39962">
        <ele>1567.4</ele>
        <time>2020-08-30T12:43:18.799Z</time>
      </trkpt>
      <trkpt lat="42.50373" lon="2.39993">
        <ele>1570.3</ele>
        <time>2020-08-30T12:44:28.140Z</time>
      </trkpt>
      <trkpt lat="42.50362" lon="2.40022">
        <ele>1570.7</ele>
        <time>2020-08-30T12:44:53.059Z</time>
      </trkpt>
      <trkpt lat="42.5033" lon="2.40049">
        <ele>1600.7</ele>
        <time>2020-08-30T12:47:00.758Z</time>
      </trkpt>
      <trkpt lat="42.50305" lon="2.40084">
        <ele>1592.7</ele>
        <time>2020-08-30T12:47:07.915Z</time>
      </trkpt>
      <trkpt lat="42.50289" lon="2.40101">
        <ele>1597.1</ele>
        <time>2020-08-30T12:48:16.784Z</time>
      </trkpt>
      <trkpt lat="42.50279" lon="2.40135">
        <ele>1595.5</ele>
        <time>2020-08-30T12:48:22.001Z</time>
      </trkpt>
      <trkpt lat="42.50258" lon="2.40155">
        <ele>1598.3</ele>
        <time>2020-08-30T12:49:26.340Z</time>
      </trkpt>
      <trkpt lat="42.50231" lon="2.40168">
        <ele>1604.5</ele>
        <time>2020-08-30T12:51:03.422Z</time>
      </trkpt>
      <trkpt lat="42.50202" lon="2.40186">
        <ele>1610.4</ele>
        <time>2020-08-30T12:52:51.488Z</time>
      </trkpt>
      <trkpt lat="42.50195" lon="2.40207">
        <ele>1608.6</ele>
        <time>2020-08-30T12:52:54.873Z</time>
      </trkpt>
      <trkpt lat="42.50181" lon="2.40232">
        <ele>1608.1</ele>
        <time>2020-08-30T12:53:01.289Z</time>
      </trkpt>
      <trkpt lat="42.5015" lon="2.4026">
        <ele>1614.8</ele>
        <time>2020-08-30T12:55:07.491Z</time>
      </trkpt>
      <trkpt lat="42.501" lon="2.40299">
        <ele>1620</ele>
        <time>2020-08-30T12:57:07.725Z</time>
      </trkpt>
      <trkpt lat="42.5005" lon="2.4032">
        <ele>1643.3</ele>
        <time>2020-08-30T13:00:05.086Z</time>
      </trkpt>
      <trkpt lat="42.50023" lon="2.40334">
        <ele>1642.5</ele>
        <time>2020-08-30T13:00:12.575Z</time>
      </trkpt>
      <trkpt lat="42.5001" lon="2.4035">
        <ele>1644.4</ele>
        <time>2020-08-30T13:00:56.177Z</time>
      </trkpt>
      <trkpt lat="42.49987" lon="2.40382">
        <ele>1664</ele>
        <time>2020-08-30T13:02:47.824Z</time>
      </trkpt>
      <trkpt lat="42.50019" lon="2.40411">
        <ele>1646</ele>
        <time>2020-08-30T13:02:55.491Z</time>
      </trkpt>
      <trkpt lat="42.50055" lon="2.40441">
        <ele>1650.9</ele>
        <time>2020-08-30T13:04:49.808Z</time>
      </trkpt>
      <trkpt lat="42.50075" lon="2.40466">
        <ele>1654.8</ele>
        <time>2020-08-30T13:06:21.968Z</time>
      </trkpt>
      <trkpt lat="42.50085" lon="2.4049">
        <ele>1649.4</ele>
        <time>2020-08-30T13:06:26.017Z</time>
      </trkpt>
      <trkpt lat="42.50071" lon="2.40589">
        <ele>1688</ele>
        <time>2020-08-30T13:10:37.850Z</time>
        <extensions>
          <visugpx:TrkExtension xmlns:visugpx="https://www.visugpx.com/editgpx/">
            <visugpx:node>6</visugpx:node>
            </visugpx:TrkExtension>
        </extensions>
      </trkpt>
      <trkpt lat="42.50061" lon="2.40654">
        <ele>1695.5</ele>
        <time>2020-08-30T13:13:23.733Z</time>
      </trkpt>
      <trkpt lat="42.50048" lon="2.40725">
        <ele>1705.3</ele>
        <time>2020-08-30T13:16:26.496Z</time>
      </trkpt>
      <trkpt lat="42.50041" lon="2.40711">
        <ele>1706.2</ele>
        <time>2020-08-30T13:16:48.908Z</time>
      </trkpt>
      <trkpt lat="42.50035" lon="2.40699">
        <ele>1706.9</ele>
        <time>2020-08-30T13:17:07.183Z</time>
      </trkpt>
      <trkpt lat="42.50028" lon="2.40682">
        <ele>1708.6</ele>
        <time>2020-08-30T13:17:47.153Z</time>
        <extensions>
          <visugpx:TrkExtension xmlns:visugpx="https://www.visugpx.com/editgpx/">
            <visugpx:node>7</visugpx:node>
            </visugpx:TrkExtension>
        </extensions>
      </trkpt>
      <trkpt lat="42.50027" lon="2.40679">
        <ele>1709</ele>
        <time>2020-08-30T13:17:55.378Z</time>
      </trkpt>
      <trkpt lat="42.50024" lon="2.40673">
        <ele>1710.1</ele>
        <time>2020-08-30T13:18:13.490Z</time>
      </trkpt>
      <trkpt lat="42.50025" lon="2.40691">
        <ele>1709.1</ele>
        <time>2020-08-30T13:18:16.141Z</time>
      </trkpt>
      <trkpt lat="42.50025" lon="2.40704">
        <ele>1708.9</ele>
        <time>2020-08-30T13:18:18.820Z</time>
      </trkpt>
      <trkpt lat="42.50025" lon="2.40716">
        <ele>1709.3</ele>
        <time>2020-08-30T13:18:31.997Z</time>
      </trkpt>
      <trkpt lat="42.50025" lon="2.40728">
        <ele>1710.2</ele>
        <time>2020-08-30T13:18:52.555Z</time>
      </trkpt>
      <trkpt lat="42.50025" lon="2.40739">
        <ele>1711.2</ele>
        <time>2020-08-30T13:19:16.526Z</time>
      </trkpt>
      <trkpt lat="42.50025" lon="2.4075">
        <ele>1715.4</ele>
        <time>2020-08-30T13:19:44.007Z</time>
      </trkpt>
      <trkpt lat="42.50024" lon="2.40761">
        <ele>1715.3</ele>
        <time>2020-08-30T13:19:46.546Z</time>
      </trkpt>
      <trkpt lat="42.50024" lon="2.40776">
        <ele>1714.8</ele>
        <time>2020-08-30T13:19:48.956Z</time>
      </trkpt>
      <trkpt lat="42.50024" lon="2.40789">
        <ele>1714.8</ele>
        <time>2020-08-30T13:19:57.376Z</time>
      </trkpt>
      <trkpt lat="42.50024" lon="2.40803">
        <ele>1715.3</ele>
        <time>2020-08-30T13:20:13.071Z</time>
      </trkpt>
      <trkpt lat="42.50024" lon="2.40816">
        <ele>1716</ele>
        <time>2020-08-30T13:20:30.411Z</time>
      </trkpt>
      <trkpt lat="42.50025" lon="2.4083">
        <ele>1716.6</ele>
        <time>2020-08-30T13:20:47.205Z</time>
      </trkpt>
      <trkpt lat="42.50025" lon="2.40841">
        <ele>1717.7</ele>
        <time>2020-08-30T13:21:14.686Z</time>
      </trkpt>
      <trkpt lat="42.50026" lon="2.40849">
        <ele>1717.3</ele>
        <time>2020-08-30T13:21:15.878Z</time>
      </trkpt>
      <trkpt lat="42.50025" lon="2.40857">
        <ele>1717</ele>
        <time>2020-08-30T13:21:17.126Z</time>
      </trkpt>
      <trkpt lat="42.50023" lon="2.40862">
        <ele>1716.9</ele>
        <time>2020-08-30T13:21:18.259Z</time>
      </trkpt>
      <trkpt lat="42.50021" lon="2.40865">
        <ele>1716.8</ele>
        <time>2020-08-30T13:21:18.986Z</time>
      </trkpt>
      <trkpt lat="42.5002" lon="2.40867">
        <ele>1716.8</ele>
        <time>2020-08-30T13:21:20.551Z</time>
      </trkpt>
      <trkpt lat="42.50018" lon="2.40868">
        <ele>1716.9</ele>
        <time>2020-08-30T13:21:23.760Z</time>
      </trkpt>
      <trkpt lat="42.50015" lon="2.40867">
        <ele>1717</ele>
        <time>2020-08-30T13:21:27.618Z</time>
      </trkpt>
      <trkpt lat="42.50013" lon="2.40866">
        <ele>1717.2</ele>
        <time>2020-08-30T13:21:32.212Z</time>
      </trkpt>
      <trkpt lat="42.50011" lon="2.40865">
        <ele>1717.4</ele>
        <time>2020-08-30T13:21:36.805Z</time>
      </trkpt>
      <trkpt lat="42.50009" lon="2.40865">
        <ele>1717.5</ele>
        <time>2020-08-30T13:21:39.877Z</time>
      </trkpt>
      <trkpt lat="42.50005" lon="2.40872">
        <ele>1717.1</ele>
        <time>2020-08-30T13:21:41.120Z</time>
      </trkpt>
      <trkpt lat="42.50004" lon="2.40876">
        <ele>1716.9</ele>
        <time>2020-08-30T13:21:41.699Z</time>
      </trkpt>
      <trkpt lat="42.50002" lon="2.40881">
        <ele>1716.7</ele>
        <time>2020-08-30T13:21:42.593Z</time>
      </trkpt>
      <trkpt lat="42.5" lon="2.40884">
        <ele>1716.6</ele>
        <time>2020-08-30T13:21:43.320Z</time>
      </trkpt>
      <trkpt lat="42.49996" lon="2.40887">
        <ele>1723</ele>
        <time>2020-08-30T13:21:58.808Z</time>
      </trkpt>
      <trkpt lat="42.49989" lon="2.40889">
        <ele>1723</ele>
        <time>2020-08-30T13:22:05.092Z</time>
      </trkpt>
      <trkpt lat="42.49976" lon="2.40894">
        <ele>1723.5</ele>
        <time>2020-08-30T13:22:23.049Z</time>
      </trkpt>
      <trkpt lat="42.49965" lon="2.40898">
        <ele>1724.1</ele>
        <time>2020-08-30T13:22:40.856Z</time>
      </trkpt>
      <trkpt lat="42.49952" lon="2.40902">
        <ele>1724.5</ele>
        <time>2020-08-30T13:22:57.006Z</time>
      </trkpt>
      <trkpt lat="42.49941" lon="2.40907">
        <ele>1724.2</ele>
        <time>2020-08-30T13:23:00.071Z</time>
      </trkpt>
      <trkpt lat="42.49929" lon="2.40912">
        <ele>1722.9</ele>
        <time>2020-08-30T13:23:02.572Z</time>
      </trkpt>
      <trkpt lat="42.49916" lon="2.40916">
        <ele>1720.8</ele>
        <time>2020-08-30T13:23:05.228Z</time>
      </trkpt>
      <trkpt lat="42.49904" lon="2.40921">
        <ele>1719.5</ele>
        <time>2020-08-30T13:23:07.729Z</time>
      </trkpt>
      <trkpt lat="42.49893" lon="2.40925">
        <ele>1719.9</ele>
        <time>2020-08-30T13:23:22.479Z</time>
      </trkpt>
      <trkpt lat="42.49883" lon="2.4093">
        <ele>1720.6</ele>
        <time>2020-08-30T13:23:40.725Z</time>
      </trkpt>
      <trkpt lat="42.49873" lon="2.40935">
        <ele>1721.7</ele>
        <time>2020-08-30T13:24:05.859Z</time>
      </trkpt>
      <trkpt lat="42.49864" lon="2.4094">
        <ele>1722.5</ele>
        <time>2020-08-30T13:24:24.803Z</time>
      </trkpt>
      <trkpt lat="42.49863" lon="2.40941">
        <ele>1722.6</ele>
        <time>2020-08-30T13:24:27.188Z</time>
        <extensions>
          <visugpx:TrkExtension xmlns:visugpx="https://www.visugpx.com/editgpx/">
            <visugpx:node>8</visugpx:node>
            </visugpx:TrkExtension>
        </extensions>
      </trkpt>
      <trkpt lat="42.49859" lon="2.40943">
        <ele>1723</ele>
        <time>2020-08-30T13:24:36.374Z</time>
      </trkpt>
      <trkpt lat="42.49852" lon="2.40947">
        <ele>1723.1</ele>
        <time>2020-08-30T13:24:43.962Z</time>
      </trkpt>
      <trkpt lat="42.49846" lon="2.40951">
        <ele>1722.6</ele>
        <time>2020-08-30T13:24:45.294Z</time>
      </trkpt>
      <trkpt lat="42.49838" lon="2.40959">
        <ele>1721.2</ele>
        <time>2020-08-30T13:24:47.274Z</time>
      </trkpt>
      <trkpt lat="42.4983" lon="2.40967">
        <ele>1733.5</ele>
        <time>2020-08-30T13:25:20.954Z</time>
      </trkpt>
      <trkpt lat="42.49823" lon="2.40977">
        <ele>1730.9</ele>
        <time>2020-08-30T13:25:22.979Z</time>
      </trkpt>
      <trkpt lat="42.49815" lon="2.40986">
        <ele>1729.6</ele>
        <time>2020-08-30T13:25:25.050Z</time>
      </trkpt>
      <trkpt lat="42.49809" lon="2.40996">
        <ele>1730</ele>
        <time>2020-08-30T13:25:38.638Z</time>
      </trkpt>
      <trkpt lat="42.49805" lon="2.41004">
        <ele>1716.4</ele>
        <time>2020-08-30T13:25:40.058Z</time>
      </trkpt>
      <trkpt lat="42.49802" lon="2.4101">
        <ele>1716.8</ele>
        <time>2020-08-30T13:25:49.864Z</time>
      </trkpt>
      <trkpt lat="42.49798" lon="2.41016">
        <ele>1717</ele>
        <time>2020-08-30T13:25:57.427Z</time>
      </trkpt>
      <trkpt lat="42.49796" lon="2.41022">
        <ele>1717</ele>
        <time>2020-08-30T13:26:01.692Z</time>
      </trkpt>
      <trkpt lat="42.49793" lon="2.41028">
        <ele>1716.9</ele>
        <time>2020-08-30T13:26:03.224Z</time>
      </trkpt>
      <trkpt lat="42.49791" lon="2.41033">
        <ele>1716.6</ele>
        <time>2020-08-30T13:26:04.060Z</time>
      </trkpt>
      <trkpt lat="42.49787" lon="2.4104">
        <ele>1716.4</ele>
        <time>2020-08-30T13:26:05.699Z</time>
      </trkpt>
      <trkpt lat="42.49782" lon="2.41049">
        <ele>1715.9</ele>
        <time>2020-08-30T13:26:07.294Z</time>
      </trkpt>
      <trkpt lat="42.49777" lon="2.41057">
        <ele>1715.8</ele>
        <time>2020-08-30T13:26:09.675Z</time>
      </trkpt>
      <trkpt lat="42.49772" lon="2.41063">
        <ele>1715.9</ele>
        <time>2020-08-30T13:26:16.473Z</time>
      </trkpt>
      <trkpt lat="42.49766" lon="2.41072">
        <ele>1716.3</ele>
        <time>2020-08-30T13:26:29.755Z</time>
      </trkpt>
      <trkpt lat="42.4976" lon="2.41082">
        <ele>1716.8</ele>
        <time>2020-08-30T13:26:44.610Z</time>
      </trkpt>
      <trkpt lat="42.49754" lon="2.41092">
        <ele>1710</ele>
        <time>2020-08-30T13:26:46.503Z</time>
      </trkpt>
      <trkpt lat="42.49749" lon="2.41099">
        <ele>1711.5</ele>
        <time>2020-08-30T13:27:10.853Z</time>
      </trkpt>
      <trkpt lat="42.49745" lon="2.41107">
        <ele>1709</ele>
        <time>2020-08-30T13:27:12.273Z</time>
      </trkpt>
      <trkpt lat="42.49741" lon="2.41116">
        <ele>1706.7</ele>
        <time>2020-08-30T13:27:13.816Z</time>
      </trkpt>
      <trkpt lat="42.49729" lon="2.41141">
        <ele>1701.5</ele>
        <time>2020-08-30T13:27:18.198Z</time>
      </trkpt>
      <trkpt lat="42.49727" lon="2.41144">
        <ele>1701</ele>
        <time>2020-08-30T13:27:18.792Z</time>
      </trkpt>
      <trkpt lat="42.49723" lon="2.4115">
        <ele>1700.2</ele>
        <time>2020-08-30T13:27:19.980Z</time>
      </trkpt>
      <trkpt lat="42.4972" lon="2.41151">
        <ele>1700.2</ele>
        <time>2020-08-30T13:27:22.694Z</time>
      </trkpt>
      <trkpt lat="42.49717" lon="2.41149">
        <ele>1700.4</ele>
        <time>2020-08-30T13:27:28.183Z</time>
      </trkpt>
      <trkpt lat="42.49714" lon="2.41147">
        <ele>1700.7</ele>
        <time>2020-08-30T13:27:35.126Z</time>
      </trkpt>
      <trkpt lat="42.49712" lon="2.41144">
        <ele>1701.1</ele>
        <time>2020-08-30T13:27:45.230Z</time>
      </trkpt>
      <trkpt lat="42.4971" lon="2.4114">
        <ele>1701.7</ele>
        <time>2020-08-30T13:27:57.305Z</time>
      </trkpt>
      <trkpt lat="42.49707" lon="2.41136">
        <ele>1702.3</ele>
        <time>2020-08-30T13:28:11.560Z</time>
      </trkpt>
      <trkpt lat="42.49703" lon="2.41132">
        <ele>1702.8</ele>
        <time>2020-08-30T13:28:22.981Z</time>
      </trkpt>
      <trkpt lat="42.49699" lon="2.41129">
        <ele>1703.3</ele>
        <time>2020-08-30T13:28:34.475Z</time>
      </trkpt>
      <trkpt lat="42.49693" lon="2.41126">
        <ele>1703.9</ele>
        <time>2020-08-30T13:28:48.255Z</time>
      </trkpt>
      <trkpt lat="42.49686" lon="2.41122">
        <ele>1704.7</ele>
        <time>2020-08-30T13:29:06.557Z</time>
      </trkpt>
      <trkpt lat="42.4968" lon="2.41119">
        <ele>1705.6</ele>
        <time>2020-08-30T13:29:28.226Z</time>
      </trkpt>
      <trkpt lat="42.49673" lon="2.41115">
        <ele>1706.9</ele>
        <time>2020-08-30T13:29:53.964Z</time>
      </trkpt>
      <trkpt lat="42.49666" lon="2.41113">
        <ele>1705.4</ele>
        <time>2020-08-30T13:29:55.390Z</time>
      </trkpt>
      <trkpt lat="42.4966" lon="2.4111">
        <ele>1706.1</ele>
        <time>2020-08-30T13:30:11.483Z</time>
      </trkpt>
      <trkpt lat="42.49655" lon="2.41108">
        <ele>1706.3</ele>
        <time>2020-08-30T13:30:18.544Z</time>
      </trkpt>
      <trkpt lat="42.4965" lon="2.41106">
        <ele>1706.2</ele>
        <time>2020-08-30T13:30:20.030Z</time>
      </trkpt>
      <trkpt lat="42.49634" lon="2.41095">
        <ele>1705.7</ele>
        <time>2020-08-30T13:30:24.668Z</time>
      </trkpt>
      <trkpt lat="42.4963" lon="2.4109">
        <ele>1705.7</ele>
        <time>2020-08-30T13:30:29.446Z</time>
      </trkpt>
      <trkpt lat="42.49622" lon="2.41084">
        <ele>1705.4</ele>
        <time>2020-08-30T13:30:31.691Z</time>
      </trkpt>
      <trkpt lat="42.49619" lon="2.41081">
        <ele>1725.4</ele>
        <time>2020-08-30T13:30:44.321Z</time>
      </trkpt>
      <trkpt lat="42.49613" lon="2.41078">
        <ele>1724.5</ele>
        <time>2020-08-30T13:30:45.594Z</time>
      </trkpt>
      <trkpt lat="42.49607" lon="2.41076">
        <ele>1723.2</ele>
        <time>2020-08-30T13:30:46.825Z</time>
      </trkpt>
      <trkpt lat="42.496" lon="2.41073">
        <ele>1721.5</ele>
        <time>2020-08-30T13:30:48.288Z</time>
      </trkpt>
      <trkpt lat="42.49594" lon="2.41071">
        <ele>1720.2</ele>
        <time>2020-08-30T13:30:49.519Z</time>
      </trkpt>
      <trkpt lat="42.49587" lon="2.41069">
        <ele>1719.6</ele>
        <time>2020-08-30T13:30:50.944Z</time>
      </trkpt>
      <trkpt lat="42.4958" lon="2.41067">
        <ele>1719.3</ele>
        <time>2020-08-30T13:30:52.551Z</time>
      </trkpt>
      <trkpt lat="42.49573" lon="2.41067">
        <ele>1720.6</ele>
        <time>2020-08-30T13:31:16.270Z</time>
      </trkpt>
      <trkpt lat="42.49565" lon="2.41067">
        <ele>1722.2</ele>
        <time>2020-08-30T13:31:43.378Z</time>
      </trkpt>
      <trkpt lat="42.49553" lon="2.41067">
        <ele>1724</ele>
        <time>2020-08-30T13:32:24.040Z</time>
      </trkpt>
      <trkpt lat="42.49546" lon="2.41069">
        <ele>1724.5</ele>
        <time>2020-08-30T13:32:36.676Z</time>
      </trkpt>
      <trkpt lat="42.49538" lon="2.41071">
        <ele>1724.6</ele>
        <time>2020-08-30T13:32:44.729Z</time>
      </trkpt>
      <trkpt lat="42.49531" lon="2.41074">
        <ele>1724.1</ele>
        <time>2020-08-30T13:32:46.192Z</time>
      </trkpt>
      <trkpt lat="42.49525" lon="2.41077">
        <ele>1723.2</ele>
        <time>2020-08-30T13:32:47.466Z</time>
      </trkpt>
      <trkpt lat="42.49519" lon="2.41079">
        <ele>1721.9</ele>
        <time>2020-08-30T13:32:48.696Z</time>
      </trkpt>
      <trkpt lat="42.49514" lon="2.41082">
        <ele>1720.4</ele>
        <time>2020-08-30T13:32:49.786Z</time>
      </trkpt>
      <trkpt lat="42.49508" lon="2.41087">
        <ele>1711.1</ele>
        <time>2020-08-30T13:32:51.189Z</time>
      </trkpt>
      <trkpt lat="42.49492" lon="2.41108">
        <ele>1718.1</ele>
        <time>2020-08-30T13:34:06.635Z</time>
      </trkpt>
      <trkpt lat="42.49484" lon="2.41114">
        <ele>1718.9</ele>
        <time>2020-08-30T13:34:25.254Z</time>
      </trkpt>
      <trkpt lat="42.49469" lon="2.41116">
        <ele>1720.8</ele>
        <time>2020-08-30T13:35:11.407Z</time>
      </trkpt>
      <trkpt lat="42.49461" lon="2.41119">
        <ele>1721.8</ele>
        <time>2020-08-30T13:35:35.096Z</time>
      </trkpt>
      <trkpt lat="42.49454" lon="2.41128">
        <ele>1722.2</ele>
        <time>2020-08-30T13:35:48.760Z</time>
      </trkpt>
      <trkpt lat="42.4945" lon="2.41136">
        <ele>1722</ele>
        <time>2020-08-30T13:35:50.599Z</time>
      </trkpt>
      <trkpt lat="42.49452" lon="2.41147">
        <ele>1720.9</ele>
        <time>2020-08-30T13:35:52.263Z</time>
      </trkpt>
      <trkpt lat="42.49456" lon="2.41162">
        <ele>1719.5</ele>
        <time>2020-08-30T13:35:54.606Z</time>
      </trkpt>
      <trkpt lat="42.49465" lon="2.41169">
        <ele>1720.9</ele>
        <time>2020-08-30T13:36:29.762Z</time>
      </trkpt>
      <trkpt lat="42.49474" lon="2.41171">
        <ele>1718.7</ele>
        <time>2020-08-30T13:36:31.579Z</time>
      </trkpt>
      <trkpt lat="42.49489" lon="2.41169">
        <ele>1712.2</ele>
        <time>2020-08-30T13:36:34.582Z</time>
      </trkpt>
      <trkpt lat="42.49508" lon="2.41166">
        <ele>1703.6</ele>
        <time>2020-08-30T13:36:38.392Z</time>
      </trkpt>
      <trkpt lat="42.49516" lon="2.41165">
        <ele>1703</ele>
        <time>2020-08-30T13:36:39.993Z</time>
      </trkpt>
      <trkpt lat="42.49528" lon="2.41168">
        <ele>1704.3</ele>
        <time>2020-08-30T13:37:09.766Z</time>
      </trkpt>
      <trkpt lat="42.49535" lon="2.41172">
        <ele>1703.7</ele>
        <time>2020-08-30T13:37:11.279Z</time>
      </trkpt>
      <trkpt lat="42.49541" lon="2.41186">
        <ele>1704</ele>
        <time>2020-08-30T13:37:24.904Z</time>
      </trkpt>
      <trkpt lat="42.49551" lon="2.4121">
        <ele>1705.5</ele>
        <time>2020-08-30T13:38:01.895Z</time>
      </trkpt>
      <trkpt lat="42.49562" lon="2.41247">
        <ele>1705.6</ele>
        <time>2020-08-30T13:38:28.566Z</time>
      </trkpt>
      <trkpt lat="42.49562" lon="2.41262">
        <ele>1717.4</ele>
        <time>2020-08-30T13:39:06.043Z</time>
      </trkpt>
      <trkpt lat="42.49561" lon="2.41288">
        <ele>1722.9</ele>
        <time>2020-08-30T13:40:11.091Z</time>
      </trkpt>
      <trkpt lat="42.49563" lon="2.41305">
        <ele>1724.3</ele>
        <time>2020-08-30T13:40:43.322Z</time>
      </trkpt>
      <trkpt lat="42.49567" lon="2.41317">
        <ele>1723.9</ele>
        <time>2020-08-30T13:40:45.518Z</time>
      </trkpt>
      <trkpt lat="42.49572" lon="2.41332">
        <ele>1721.8</ele>
        <time>2020-08-30T13:40:47.936Z</time>
      </trkpt>
      <trkpt lat="42.49581" lon="2.41355">
        <ele>1733.2</ele>
        <time>2020-08-30T13:41:52.991Z</time>
      </trkpt>
      <trkpt lat="42.49587" lon="2.41375">
        <ele>1712.8</ele>
        <time>2020-08-30T13:41:56.163Z</time>
      </trkpt>
      <trkpt lat="42.49594" lon="2.41429">
        <ele>1732.8</ele>
        <time>2020-08-30T13:44:13.147Z</time>
      </trkpt>
      <trkpt lat="42.49598" lon="2.41452">
        <ele>1733.8</ele>
        <time>2020-08-30T13:44:41.274Z</time>
      </trkpt>
      <trkpt lat="42.49604" lon="2.41465">
        <ele>1735.2</ele>
        <time>2020-08-30T13:45:14.910Z</time>
      </trkpt>
      <trkpt lat="42.49617" lon="2.41475">
        <ele>1734.3</ele>
        <time>2020-08-30T13:45:17.778Z</time>
      </trkpt>
      <trkpt lat="42.49631" lon="2.41491">
        <ele>1732.7</ele>
        <time>2020-08-30T13:45:21.425Z</time>
      </trkpt>
      <trkpt lat="42.49636" lon="2.41498">
        <ele>1732</ele>
        <time>2020-08-30T13:45:22.857Z</time>
      </trkpt>
      <trkpt lat="42.49638" lon="2.4151">
        <ele>1750.9</ele>
        <time>2020-08-30T13:45:53.594Z</time>
      </trkpt>
      <trkpt lat="42.4964" lon="2.41521">
        <ele>1752.6</ele>
        <time>2020-08-30T13:46:21.900Z</time>
      </trkpt>
      <trkpt lat="42.49648" lon="2.41536">
        <ele>1755</ele>
        <time>2020-08-30T13:47:08.152Z</time>
      </trkpt>
      <trkpt lat="42.49654" lon="2.41541">
        <ele>1755.8</ele>
        <time>2020-08-30T13:47:26.698Z</time>
      </trkpt>
      <trkpt lat="42.4966" lon="2.41544">
        <ele>1756.1</ele>
        <time>2020-08-30T13:47:36.327Z</time>
      </trkpt>
      <trkpt lat="42.49671" lon="2.41554">
        <ele>1743.1</ele>
        <time>2020-08-30T13:47:38.965Z</time>
      </trkpt>
      <trkpt lat="42.49688" lon="2.41571">
        <ele>1745.9</ele>
        <time>2020-08-30T13:48:49.649Z</time>
      </trkpt>
      <trkpt lat="42.49709" lon="2.41585">
        <ele>1762.7</ele>
        <time>2020-08-30T13:50:08.939Z</time>
      </trkpt>
      <trkpt lat="42.49731" lon="2.41603">
        <ele>1760.1</ele>
        <time>2020-08-30T13:50:14.058Z</time>
      </trkpt>
      <trkpt lat="42.49745" lon="2.41622">
        <ele>1763.3</ele>
        <time>2020-08-30T13:51:21.168Z</time>
      </trkpt>
      <trkpt lat="42.49753" lon="2.41644">
        <ele>1749.3</ele>
        <time>2020-08-30T13:51:24.771Z</time>
      </trkpt>
      <trkpt lat="42.49757" lon="2.41662">
        <ele>1758.5</ele>
        <time>2020-08-30T13:52:11.739Z</time>
      </trkpt>
      <trkpt lat="42.49759" lon="2.41677">
        <ele>1758.1</ele>
        <time>2020-08-30T13:52:14.423Z</time>
      </trkpt>
      <trkpt lat="42.49756" lon="2.41713">
        <ele>1753.1</ele>
        <time>2020-08-30T13:52:19.744Z</time>
      </trkpt>
      <trkpt lat="42.49752" lon="2.41741">
        <ele>1761.7</ele>
        <time>2020-08-30T13:53:30.999Z</time>
      </trkpt>
      <trkpt lat="42.49745" lon="2.41761">
        <ele>1776.3</ele>
        <time>2020-08-30T13:54:26.310Z</time>
      </trkpt>
      <trkpt lat="42.49737" lon="2.41776">
        <ele>1781.8</ele>
        <time>2020-08-30T13:55:12.562Z</time>
        <extensions>
          <visugpx:TrkExtension xmlns:visugpx="https://www.visugpx.com/editgpx/">
            <visugpx:node>9</visugpx:node>
            </visugpx:TrkExtension>
        </extensions>
      </trkpt>
      <trkpt lat="42.49726" lon="2.41796">
        <ele>1784.5</ele>
        <time>2020-08-30T13:56:14.901Z</time>
      </trkpt>
      <trkpt lat="42.49725" lon="2.41801">
        <ele>1784.5</ele>
        <time>2020-08-30T13:56:18.256Z</time>
      </trkpt>
      <trkpt lat="42.49723" lon="2.41807">
        <ele>1784.6</ele>
        <time>2020-08-30T13:56:23.513Z</time>
      </trkpt>
      <trkpt lat="42.49721" lon="2.41814">
        <ele>1784.6</ele>
        <time>2020-08-30T13:56:28.376Z</time>
      </trkpt>
      <trkpt lat="42.49718" lon="2.41821">
        <ele>1784.8</ele>
        <time>2020-08-30T13:56:35.942Z</time>
      </trkpt>
      <trkpt lat="42.49716" lon="2.41828">
        <ele>1785.3</ele>
        <time>2020-08-30T13:56:47.498Z</time>
      </trkpt>
      <trkpt lat="42.49714" lon="2.41835">
        <ele>1790</ele>
        <time>2020-08-30T13:57:06.254Z</time>
      </trkpt>
      <trkpt lat="42.49711" lon="2.41845">
        <ele>1791.7</ele>
        <time>2020-08-30T13:57:33.227Z</time>
      </trkpt>
      <trkpt lat="42.4971" lon="2.41851">
        <ele>1792.7</ele>
        <time>2020-08-30T13:57:48.595Z</time>
      </trkpt>
      <trkpt lat="42.49708" lon="2.41854">
        <ele>1793.4</ele>
        <time>2020-08-30T13:57:58.700Z</time>
      </trkpt>
      <trkpt lat="42.49707" lon="2.41855">
        <ele>1793.9</ele>
        <time>2020-08-30T13:58:02.910Z</time>
      </trkpt>
      <trkpt lat="42.49706" lon="2.41853">
        <ele>1793.8</ele>
        <time>2020-08-30T13:58:03.263Z</time>
      </trkpt>
      <trkpt lat="42.49706" lon="2.41849">
        <ele>1793.6</ele>
        <time>2020-08-30T13:58:03.851Z</time>
      </trkpt>
      <trkpt lat="42.49706" lon="2.41844">
        <ele>1793.3</ele>
        <time>2020-08-30T13:58:04.585Z</time>
      </trkpt>
      <trkpt lat="42.49706" lon="2.41838">
        <ele>1793</ele>
        <time>2020-08-30T13:58:05.467Z</time>
      </trkpt>
      <trkpt lat="42.49706" lon="2.41832">
        <ele>1789</ele>
        <time>2020-08-30T13:58:06.348Z</time>
      </trkpt>
      <trkpt lat="42.49706" lon="2.41826">
        <ele>1789.1</ele>
        <time>2020-08-30T13:58:11.249Z</time>
      </trkpt>
      <trkpt lat="42.49706" lon="2.41815">
        <ele>1789.2</ele>
        <time>2020-08-30T13:58:19.281Z</time>
      </trkpt>
      <trkpt lat="42.49702" lon="2.41812">
        <ele>1790.5</ele>
        <time>2020-08-30T13:58:34.770Z</time>
      </trkpt>
      <trkpt lat="42.49694" lon="2.41816">
        <ele>1793.1</ele>
        <time>2020-08-30T13:59:03.661Z</time>
      </trkpt>
      <trkpt lat="42.49691" lon="2.41818">
        <ele>1794.3</ele>
        <time>2020-08-30T13:59:14.988Z</time>
      </trkpt>
      <trkpt lat="42.49688" lon="2.41821">
        <ele>1795.5</ele>
        <time>2020-08-30T13:59:27.618Z</time>
      </trkpt>
      <trkpt lat="42.49685" lon="2.41826">
        <ele>1796.9</ele>
        <time>2020-08-30T13:59:43.723Z</time>
      </trkpt>
      <trkpt lat="42.49681" lon="2.41841">
        <ele>1801.2</ele>
        <time>2020-08-30T14:00:23.575Z</time>
      </trkpt>
      <trkpt lat="42.49676" lon="2.41851">
        <ele>1801.1</ele>
        <time>2020-08-30T14:00:26.379Z</time>
      </trkpt>
      <trkpt lat="42.49672" lon="2.41855">
        <ele>1801.1</ele>
        <time>2020-08-30T14:00:30.745Z</time>
      </trkpt>
      <trkpt lat="42.4967" lon="2.41859">
        <ele>1801</ele>
        <time>2020-08-30T14:00:31.665Z</time>
      </trkpt>
      <trkpt lat="42.49666" lon="2.41864">
        <ele>1824.9</ele>
        <time>2020-08-30T14:00:50.097Z</time>
      </trkpt>
      <trkpt lat="42.49662" lon="2.4187">
        <ele>1826.4</ele>
        <time>2020-08-30T14:01:10.307Z</time>
      </trkpt>
      <trkpt lat="42.49656" lon="2.41877">
        <ele>1827.6</ele>
        <time>2020-08-30T14:01:37.125Z</time>
      </trkpt>
      <trkpt lat="42.49651" lon="2.41884">
        <ele>1828.6</ele>
        <time>2020-08-30T14:02:01.474Z</time>
      </trkpt>
      <trkpt lat="42.49645" lon="2.41891">
        <ele>1829.5</ele>
        <time>2020-08-30T14:02:22.344Z</time>
      </trkpt>
      <trkpt lat="42.49638" lon="2.419">
        <ele>1831</ele>
        <time>2020-08-30T14:02:55.028Z</time>
      </trkpt>
      <trkpt lat="42.49632" lon="2.41908">
        <ele>1832.8</ele>
        <time>2020-08-30T14:03:23.538Z</time>
      </trkpt>
      <trkpt lat="42.49621" lon="2.41928">
        <ele>1839.9</ele>
        <time>2020-08-30T14:04:25.877Z</time>
      </trkpt>
      <trkpt lat="42.49613" lon="2.41939">
        <ele>1842.2</ele>
        <time>2020-08-30T14:05:04.479Z</time>
      </trkpt>
      <trkpt lat="42.4961" lon="2.41944">
        <ele>1842.8</ele>
        <time>2020-08-30T14:05:19.067Z</time>
      </trkpt>
      <trkpt lat="42.49606" lon="2.41955">
        <ele>1843.5</ele>
        <time>2020-08-30T14:05:35.999Z</time>
      </trkpt>
      <trkpt lat="42.49603" lon="2.41961">
        <ele>1844</ele>
        <time>2020-08-30T14:05:47.487Z</time>
      </trkpt>
      <trkpt lat="42.49601" lon="2.41964">
        <ele>1844.3</ele>
        <time>2020-08-30T14:05:54.340Z</time>
      </trkpt>
      <trkpt lat="42.49598" lon="2.41969">
        <ele>1845</ele>
        <time>2020-08-30T14:06:10.445Z</time>
      </trkpt>
      <trkpt lat="42.49597" lon="2.41974">
        <ele>1845.6</ele>
        <time>2020-08-30T14:06:23.389Z</time>
      </trkpt>
      <trkpt lat="42.49597" lon="2.41978">
        <ele>1846</ele>
        <time>2020-08-30T14:06:33.383Z</time>
      </trkpt>
      <trkpt lat="42.496" lon="2.41982">
        <ele>1846</ele>
        <time>2020-08-30T14:06:37.078Z</time>
      </trkpt>
      <trkpt lat="42.49602" lon="2.41982">
        <ele>1845.7</ele>
        <time>2020-08-30T14:06:37.477Z</time>
      </trkpt>
      <trkpt lat="42.49607" lon="2.41984">
        <ele>1845</ele>
        <time>2020-08-30T14:06:38.515Z</time>
      </trkpt>
      <trkpt lat="42.4961" lon="2.41985">
        <ele>1844.4</ele>
        <time>2020-08-30T14:06:39.131Z</time>
      </trkpt>
      <trkpt lat="42.49614" lon="2.41986">
        <ele>1843.8</ele>
        <time>2020-08-30T14:06:39.941Z</time>
      </trkpt>
      <trkpt lat="42.49617" lon="2.41986">
        <ele>1843.2</ele>
        <time>2020-08-30T14:06:40.539Z</time>
      </trkpt>
      <trkpt lat="42.49645" lon="2.41978">
        <ele>1838.7</ele>
        <time>2020-08-30T14:06:46.240Z</time>
      </trkpt>
      <trkpt lat="42.49662" lon="2.41981">
        <ele>1837.5</ele>
        <time>2020-08-30T14:06:49.655Z</time>
      </trkpt>
      <trkpt lat="42.49672" lon="2.41987">
        <ele>1828.7</ele>
        <time>2020-08-30T14:06:51.833Z</time>
      </trkpt>
      <trkpt lat="42.49688" lon="2.42004">
        <ele>1842.7</ele>
        <time>2020-08-30T14:08:00.705Z</time>
      </trkpt>
      <trkpt lat="42.49712" lon="2.42039">
        <ele>1848</ele>
        <time>2020-08-30T14:10:00.120Z</time>
      </trkpt>
      <trkpt lat="42.49732" lon="2.42064">
        <ele>1852.4</ele>
        <time>2020-08-30T14:11:32.282Z</time>
      </trkpt>
      <trkpt lat="42.49747" lon="2.42076">
        <ele>1856.7</ele>
        <time>2020-08-30T14:12:31.292Z</time>
      </trkpt>
      <trkpt lat="42.49813" lon="2.4211">
        <ele>1864.4</ele>
        <time>2020-08-30T14:15:28.208Z</time>
      </trkpt>
      <trkpt lat="42.49834" lon="2.42122">
        <ele>1851.5</ele>
        <time>2020-08-30T14:15:32.748Z</time>
      </trkpt>
      <trkpt lat="42.49815" lon="2.423">
        <ele>1896.5</ele>
        <time>2020-08-30T14:23:02.087Z</time>
      </trkpt>
      <trkpt lat="42.49816" lon="2.42315">
        <ele>1895.3</ele>
        <time>2020-08-30T14:23:04.299Z</time>
        <extensions>
          <visugpx:TrkExtension xmlns:visugpx="https://www.visugpx.com/editgpx/">
            <visugpx:node>10</visugpx:node>
            </visugpx:TrkExtension>
        </extensions>
      </trkpt>
      <trkpt lat="42.49819" lon="2.42344">
        <ele>1898.8</ele>
        <time>2020-08-30T14:24:17.460Z</time>
      </trkpt>
      <trkpt lat="42.49829" lon="2.42393">
        <ele>1902.9</ele>
        <time>2020-08-30T14:25:51.707Z</time>
      </trkpt>
      <trkpt lat="42.4983" lon="2.42402">
        <ele>1900.3</ele>
        <time>2020-08-30T14:25:53.044Z</time>
      </trkpt>
      <trkpt lat="42.49831" lon="2.42408">
        <ele>1897.3</ele>
        <time>2020-08-30T14:25:53.948Z</time>
      </trkpt>
      <trkpt lat="42.49834" lon="2.42423">
        <ele>1885.3</ele>
        <time>2020-08-30T14:25:56.231Z</time>
      </trkpt>
      <trkpt lat="42.49836" lon="2.42436">
        <ele>1878.5</ele>
        <time>2020-08-30T14:25:58.181Z</time>
      </trkpt>
      <trkpt lat="42.49837" lon="2.42443">
        <ele>1876.7</ele>
        <time>2020-08-30T14:25:59.229Z</time>
      </trkpt>
      <trkpt lat="42.49837" lon="2.42448">
        <ele>1875.9</ele>
        <time>2020-08-30T14:25:59.963Z</time>
      </trkpt>
      <trkpt lat="42.49838" lon="2.42455">
        <ele>1875.7</ele>
        <time>2020-08-30T14:26:01.188Z</time>
      </trkpt>
      <trkpt lat="42.49838" lon="2.42461">
        <ele>1876</ele>
        <time>2020-08-30T14:26:08.882Z</time>
      </trkpt>
      <trkpt lat="42.49841" lon="2.42476">
        <ele>1879.1</ele>
        <time>2020-08-30T14:26:47.711Z</time>
      </trkpt>
      <trkpt lat="42.4984" lon="2.42482">
        <ele>1881.8</ele>
        <time>2020-08-30T14:27:03.079Z</time>
      </trkpt>
      <trkpt lat="42.49838" lon="2.42487">
        <ele>1885.2</ele>
        <time>2020-08-30T14:27:17.290Z</time>
      </trkpt>
      <trkpt lat="42.49837" lon="2.42492">
        <ele>1889.1</ele>
        <time>2020-08-30T14:27:30.233Z</time>
      </trkpt>
      <trkpt lat="42.49835" lon="2.42496">
        <ele>1893.6</ele>
        <time>2020-08-30T14:27:42.308Z</time>
      </trkpt>
      <trkpt lat="42.49834" lon="2.425">
        <ele>1898.2</ele>
        <time>2020-08-30T14:27:52.860Z</time>
      </trkpt>
      <trkpt lat="42.49833" lon="2.42505">
        <ele>1904</ele>
        <time>2020-08-30T14:28:05.803Z</time>
      </trkpt>
      <trkpt lat="42.49832" lon="2.42509">
        <ele>1907.8</ele>
        <time>2020-08-30T14:28:16.355Z</time>
      </trkpt>
      <trkpt lat="42.49831" lon="2.42514">
        <ele>1911.1</ele>
        <time>2020-08-30T14:28:29.298Z</time>
      </trkpt>
      <trkpt lat="42.4983" lon="2.42519">
        <ele>1914.1</ele>
        <time>2020-08-30T14:28:42.241Z</time>
      </trkpt>
      <trkpt lat="42.49829" lon="2.42526">
        <ele>1916.8</ele>
        <time>2020-08-30T14:29:00.055Z</time>
      </trkpt>
      <trkpt lat="42.49829" lon="2.4254">
        <ele>1919.7</ele>
        <time>2020-08-30T14:29:35.032Z</time>
      </trkpt>
      <trkpt lat="42.4983" lon="2.42545">
        <ele>1920</ele>
        <time>2020-08-30T14:29:42.249Z</time>
      </trkpt>
      <trkpt lat="42.49832" lon="2.42553">
        <ele>1919.7</ele>
        <time>2020-08-30T14:29:43.571Z</time>
      </trkpt>
      <trkpt lat="42.49835" lon="2.42558">
        <ele>1891.4</ele>
        <time>2020-08-30T14:29:44.518Z</time>
      </trkpt>
      <trkpt lat="42.49837" lon="2.42564">
        <ele>1893.2</ele>
        <time>2020-08-30T14:30:00.968Z</time>
      </trkpt>
      <trkpt lat="42.49841" lon="2.42571">
        <ele>1896.1</ele>
        <time>2020-08-30T14:30:23.094Z</time>
      </trkpt>
      <trkpt lat="42.49843" lon="2.42576">
        <ele>1897.8</ele>
        <time>2020-08-30T14:30:37.306Z</time>
      </trkpt>
      <trkpt lat="42.49844" lon="2.42581">
        <ele>1898.4</ele>
        <time>2020-08-30T14:30:50.249Z</time>
      </trkpt>
      <trkpt lat="42.49846" lon="2.42587">
        <ele>1901.8</ele>
        <time>2020-08-30T14:31:06.699Z</time>
      </trkpt>
      <trkpt lat="42.49847" lon="2.42594">
        <ele>1899.9</ele>
        <time>2020-08-30T14:31:07.747Z</time>
      </trkpt>
      <trkpt lat="42.49849" lon="2.42601">
        <ele>1898.3</ele>
        <time>2020-08-30T14:31:08.849Z</time>
      </trkpt>
      <trkpt lat="42.4985" lon="2.42607">
        <ele>1897.1</ele>
        <time>2020-08-30T14:31:09.753Z</time>
      </trkpt>
      <trkpt lat="42.49856" lon="2.42634">
        <ele>1896.8</ele>
        <time>2020-08-30T14:31:16.035Z</time>
      </trkpt>
      <trkpt lat="42.49857" lon="2.42641">
        <ele>1897.3</ele>
        <time>2020-08-30T14:31:27.498Z</time>
      </trkpt>
      <trkpt lat="42.49858" lon="2.42648">
        <ele>1898</ele>
        <time>2020-08-30T14:31:45.240Z</time>
      </trkpt>
      <trkpt lat="42.49859" lon="2.42653">
        <ele>1898.5</ele>
        <time>2020-08-30T14:31:57.726Z</time>
      </trkpt>
      <trkpt lat="42.4986" lon="2.42665">
        <ele>1899.6</ele>
        <time>2020-08-30T14:32:24.123Z</time>
      </trkpt>
      <trkpt lat="42.49858" lon="2.42669">
        <ele>1908.9</ele>
        <time>2020-08-30T14:32:36.197Z</time>
      </trkpt>
      <trkpt lat="42.49855" lon="2.42678">
        <ele>1909.6</ele>
        <time>2020-08-30T14:32:52.228Z</time>
      </trkpt>
      <trkpt lat="42.49855" lon="2.42683">
        <ele>1909.7</ele>
        <time>2020-08-30T14:32:56.537Z</time>
      </trkpt>
      <trkpt lat="42.49856" lon="2.42687">
        <ele>1909.5</ele>
        <time>2020-08-30T14:32:57.117Z</time>
      </trkpt>
      <trkpt lat="42.49858" lon="2.42692">
        <ele>1909.1</ele>
        <time>2020-08-30T14:32:57.952Z</time>
      </trkpt>
      <trkpt lat="42.49861" lon="2.42698">
        <ele>1908.7</ele>
        <time>2020-08-30T14:32:59.017Z</time>
      </trkpt>
      <trkpt lat="42.49864" lon="2.42705">
        <ele>1908.7</ele>
        <time>2020-08-30T14:33:04.261Z</time>
      </trkpt>
      <trkpt lat="42.49866" lon="2.4271">
        <ele>1908.7</ele>
        <time>2020-08-30T14:33:07.946Z</time>
      </trkpt>
      <trkpt lat="42.49869" lon="2.42717">
        <ele>1909</ele>
        <time>2020-08-30T14:33:17.131Z</time>
      </trkpt>
      <trkpt lat="42.49871" lon="2.42723">
        <ele>1909</ele>
        <time>2020-08-30T14:33:21.396Z</time>
      </trkpt>
      <trkpt lat="42.49874" lon="2.42731">
        <ele>1908.9</ele>
        <time>2020-08-30T14:33:23.378Z</time>
      </trkpt>
      <trkpt lat="42.49877" lon="2.42738">
        <ele>1908.4</ele>
        <time>2020-08-30T14:33:24.568Z</time>
      </trkpt>
      <trkpt lat="42.4988" lon="2.42746">
        <ele>1907.8</ele>
        <time>2020-08-30T14:33:25.886Z</time>
      </trkpt>
      <trkpt lat="42.49882" lon="2.42753">
        <ele>1917.7</ele>
        <time>2020-08-30T14:33:44.641Z</time>
      </trkpt>
      <trkpt lat="42.49883" lon="2.42758">
        <ele>1917.3</ele>
        <time>2020-08-30T14:33:45.402Z</time>
      </trkpt>
      <trkpt lat="42.49886" lon="2.42764">
        <ele>1917</ele>
        <time>2020-08-30T14:33:46.462Z</time>
      </trkpt>
      <trkpt lat="42.49888" lon="2.4277">
        <ele>1917.1</ele>
        <time>2020-08-30T14:33:51.719Z</time>
      </trkpt>
      <trkpt lat="42.49889" lon="2.42777">
        <ele>1917.8</ele>
        <time>2020-08-30T14:34:09.461Z</time>
      </trkpt>
      <trkpt lat="42.49889" lon="2.42785">
        <ele>1918.9</ele>
        <time>2020-08-30T14:34:29.448Z</time>
      </trkpt>
      <trkpt lat="42.49891" lon="2.42795">
        <ele>1919.5</ele>
        <time>2020-08-30T14:34:43.882Z</time>
      </trkpt>
      <trkpt lat="42.49892" lon="2.42803">
        <ele>1919.8</ele>
        <time>2020-08-30T14:34:53.080Z</time>
      </trkpt>
      <trkpt lat="42.49893" lon="2.4281">
        <ele>1919.5</ele>
        <time>2020-08-30T14:34:54.115Z</time>
      </trkpt>
      <trkpt lat="42.49894" lon="2.42816">
        <ele>1919.1</ele>
        <time>2020-08-30T14:34:55.018Z</time>
      </trkpt>
      <trkpt lat="42.49894" lon="2.42823">
        <ele>1918.5</ele>
        <time>2020-08-30T14:34:56.047Z</time>
      </trkpt>
      <trkpt lat="42.49892" lon="2.42846">
        <ele>1927.5</ele>
        <time>2020-08-30T14:35:53.906Z</time>
      </trkpt>
      <trkpt lat="42.49892" lon="2.42863">
        <ele>1930.2</ele>
        <time>2020-08-30T14:36:36.377Z</time>
      </trkpt>
      <trkpt lat="42.49892" lon="2.42871">
        <ele>1930.8</ele>
        <time>2020-08-30T14:36:50.082Z</time>
      </trkpt>
      <trkpt lat="42.49893" lon="2.42877">
        <ele>1931</ele>
        <time>2020-08-30T14:36:56.766Z</time>
      </trkpt>
      <trkpt lat="42.49895" lon="2.42883">
        <ele>1930.5</ele>
        <time>2020-08-30T14:36:57.733Z</time>
      </trkpt>
      <trkpt lat="42.49896" lon="2.42886">
        <ele>1930</ele>
        <time>2020-08-30T14:36:58.217Z</time>
      </trkpt>
      <trkpt lat="42.499" lon="2.42891">
        <ele>1928.6</ele>
        <time>2020-08-30T14:36:59.301Z</time>
      </trkpt>
      <trkpt lat="42.49902" lon="2.42895">
        <ele>1927.1</ele>
        <time>2020-08-30T14:37:00.011Z</time>
      </trkpt>
      <trkpt lat="42.49905" lon="2.42899">
        <ele>1925.5</ele>
        <time>2020-08-30T14:37:00.849Z</time>
      </trkpt>
      <trkpt lat="42.49906" lon="2.42902">
        <ele>1924</ele>
        <time>2020-08-30T14:37:01.332Z</time>
      </trkpt>
      <trkpt lat="42.49906" lon="2.4291">
        <ele>1921.3</ele>
        <time>2020-08-30T14:37:02.507Z</time>
      </trkpt>
      <trkpt lat="42.49907" lon="2.42917">
        <ele>1919.8</ele>
        <time>2020-08-30T14:37:03.555Z</time>
      </trkpt>
      <trkpt lat="42.49902" lon="2.42925">
        <ele>1929</ele>
        <time>2020-08-30T14:37:29.756Z</time>
      </trkpt>
      <trkpt lat="42.49893" lon="2.42936">
        <ele>1937.2</ele>
        <time>2020-08-30T14:38:10.808Z</time>
      </trkpt>
      <trkpt lat="42.49887" lon="2.4295">
        <ele>1942</ele>
        <time>2020-08-30T14:38:51.264Z</time>
      </trkpt>
      <trkpt lat="42.49884" lon="2.42963">
        <ele>1943.9</ele>
        <time>2020-08-30T14:39:25.295Z</time>
      </trkpt>
      <trkpt lat="42.49879" lon="2.42978">
        <ele>1946.6</ele>
        <time>2020-08-30T14:40:06.422Z</time>
      </trkpt>
      <trkpt lat="42.49879" lon="2.42984">
        <ele>1946.7</ele>
        <time>2020-08-30T14:40:11.323Z</time>
      </trkpt>
      <trkpt lat="42.49883" lon="2.42993">
        <ele>1944.8</ele>
        <time>2020-08-30T14:40:12.867Z</time>
      </trkpt>
      <trkpt lat="42.49883" lon="2.42994">
        <ele>1944.5</ele>
        <time>2020-08-30T14:40:13.013Z</time>
        <extensions>
          <visugpx:TrkExtension xmlns:visugpx="https://www.visugpx.com/editgpx/">
            <visugpx:node>11</visugpx:node>
            </visugpx:TrkExtension>
        </extensions>
      </trkpt>
      <trkpt lat="42.49887" lon="2.43">
        <ele>1952.8</ele>
        <time>2020-08-30T14:40:33.222Z</time>
      </trkpt>
      <trkpt lat="42.49889" lon="2.43006">
        <ele>1952.1</ele>
        <time>2020-08-30T14:40:34.190Z</time>
      </trkpt>
      <trkpt lat="42.4989" lon="2.43027">
        <ele>1956.6</ele>
        <time>2020-08-30T14:41:26.763Z</time>
      </trkpt>
      <trkpt lat="42.49893" lon="2.43032">
        <ele>1956.9</ele>
        <time>2020-08-30T14:41:34.751Z</time>
      </trkpt>
      <trkpt lat="42.49908" lon="2.43045">
        <ele>1956.3</ele>
        <time>2020-08-30T14:41:39.082Z</time>
      </trkpt>
      <trkpt lat="42.49926" lon="2.4307">
        <ele>1929.6</ele>
        <time>2020-08-30T14:41:44.214Z</time>
      </trkpt>
      <trkpt lat="42.49934" lon="2.43089">
        <ele>1938.7</ele>
        <time>2020-08-30T14:42:38.877Z</time>
      </trkpt>
      <trkpt lat="42.49948" lon="2.43118">
        <ele>1931.2</ele>
        <time>2020-08-30T14:42:43.968Z</time>
      </trkpt>
      <trkpt lat="42.49948" lon="2.43126">
        <ele>1931.8</ele>
        <time>2020-08-30T14:42:57.673Z</time>
      </trkpt>
      <trkpt lat="42.49948" lon="2.43133">
        <ele>1932.6</ele>
        <time>2020-08-30T14:43:15.161Z</time>
      </trkpt>
      <trkpt lat="42.49948" lon="2.43137">
        <ele>1933.1</ele>
        <time>2020-08-30T14:43:25.154Z</time>
      </trkpt>
      <trkpt lat="42.49946" lon="2.43148">
        <ele>1935.6</ele>
        <time>2020-08-30T14:43:53.459Z</time>
      </trkpt>
      <trkpt lat="42.49946" lon="2.43153">
        <ele>1936.6</ele>
        <time>2020-08-30T14:44:05.950Z</time>
      </trkpt>
      <trkpt lat="42.49947" lon="2.43159">
        <ele>1937</ele>
        <time>2020-08-30T14:44:15.242Z</time>
      </trkpt>
      <trkpt lat="42.49947" lon="2.43166">
        <ele>1937.3</ele>
        <time>2020-08-30T14:44:23.616Z</time>
      </trkpt>
      <trkpt lat="42.49947" lon="2.43175">
        <ele>1946</ele>
        <time>2020-08-30T14:44:46.101Z</time>
      </trkpt>
      <trkpt lat="42.49947" lon="2.43185">
        <ele>1945.8</ele>
        <time>2020-08-30T14:44:48.022Z</time>
      </trkpt>
      <trkpt lat="42.49947" lon="2.43195">
        <ele>1945.8</ele>
        <time>2020-08-30T14:44:54.499Z</time>
      </trkpt>
      <trkpt lat="42.49947" lon="2.43209">
        <ele>1946.6</ele>
        <time>2020-08-30T14:45:13.840Z</time>
      </trkpt>
      <trkpt lat="42.49948" lon="2.43218">
        <ele>1947.6</ele>
        <time>2020-08-30T14:45:36.579Z</time>
      </trkpt>
      <trkpt lat="42.49948" lon="2.43227">
        <ele>1949</ele>
        <time>2020-08-30T14:45:59.063Z</time>
      </trkpt>
      <trkpt lat="42.49948" lon="2.43237">
        <ele>1950.4</ele>
        <time>2020-08-30T14:46:24.046Z</time>
      </trkpt>
      <trkpt lat="42.49948" lon="2.43246">
        <ele>1951</ele>
        <time>2020-08-30T14:46:37.911Z</time>
      </trkpt>
      <trkpt lat="42.4995" lon="2.43253">
        <ele>1958.1</ele>
        <time>2020-08-30T14:46:56.666Z</time>
      </trkpt>
      <trkpt lat="42.49952" lon="2.43258">
        <ele>1956.7</ele>
        <time>2020-08-30T14:46:57.502Z</time>
      </trkpt>
      <trkpt lat="42.49955" lon="2.43263">
        <ele>1955.5</ele>
        <time>2020-08-30T14:46:58.449Z</time>
      </trkpt>
      <trkpt lat="42.49957" lon="2.43268">
        <ele>1954.5</ele>
        <time>2020-08-30T14:46:59.284Z</time>
      </trkpt>
      <trkpt lat="42.49961" lon="2.43279">
        <ele>1953.6</ele>
        <time>2020-08-30T14:47:01.086Z</time>
      </trkpt>
      <trkpt lat="42.49963" lon="2.43288">
        <ele>1953.6</ele>
        <time>2020-08-30T14:47:07.174Z</time>
      </trkpt>
      <trkpt lat="42.49965" lon="2.43296">
        <ele>1953.7</ele>
        <time>2020-08-30T14:47:13.589Z</time>
      </trkpt>
      <trkpt lat="42.49966" lon="2.43305">
        <ele>1953.9</ele>
        <time>2020-08-30T14:47:21.698Z</time>
      </trkpt>
      <trkpt lat="42.49967" lon="2.43313">
        <ele>1953.9</ele>
        <time>2020-08-30T14:47:26.953Z</time>
      </trkpt>
      <trkpt lat="42.49967" lon="2.43341">
        <ele>1958.4</ele>
        <time>2020-08-30T14:48:36.905Z</time>
      </trkpt>
      <trkpt lat="42.49968" lon="2.43344">
        <ele>1958.4</ele>
        <time>2020-08-30T14:48:39.037Z</time>
      </trkpt>
      <trkpt lat="42.49968" lon="2.43347">
        <ele>1958.3</ele>
        <time>2020-08-30T14:48:39.519Z</time>
      </trkpt>
      <trkpt lat="42.4997" lon="2.43351">
        <ele>1958.2</ele>
        <time>2020-08-30T14:48:40.439Z</time>
      </trkpt>
      <trkpt lat="42.4997" lon="2.43354">
        <ele>1958.3</ele>
        <time>2020-08-30T14:48:43.733Z</time>
      </trkpt>
      <trkpt lat="42.4997" lon="2.4336">
        <ele>1958.6</ele>
        <time>2020-08-30T14:48:51.426Z</time>
      </trkpt>
      <trkpt lat="42.49971" lon="2.43365">
        <ele>1958.9</ele>
        <time>2020-08-30T14:48:58.643Z</time>
      </trkpt>
      <trkpt lat="42.49972" lon="2.43372">
        <ele>1958.8</ele>
        <time>2020-08-30T14:49:00.145Z</time>
      </trkpt>
      <trkpt lat="42.49974" lon="2.43378">
        <ele>1958.6</ele>
        <time>2020-08-30T14:49:01.243Z</time>
      </trkpt>
      <trkpt lat="42.49975" lon="2.43383">
        <ele>1958.3</ele>
        <time>2020-08-30T14:49:02.004Z</time>
      </trkpt>
      <trkpt lat="42.49975" lon="2.43386">
        <ele>1958.2</ele>
        <time>2020-08-30T14:49:02.486Z</time>
      </trkpt>
      <trkpt lat="42.49973" lon="2.43389">
        <ele>1958.5</ele>
        <time>2020-08-30T14:49:09.339Z</time>
      </trkpt>
      <trkpt lat="42.49972" lon="2.43393">
        <ele>1958.7</ele>
        <time>2020-08-30T14:49:14.614Z</time>
      </trkpt>
      <trkpt lat="42.49973" lon="2.43396">
        <ele>1958.4</ele>
        <time>2020-08-30T14:49:15.098Z</time>
      </trkpt>
      <trkpt lat="42.49974" lon="2.43399">
        <ele>1957.8</ele>
        <time>2020-08-30T14:49:15.581Z</time>
      </trkpt>
      <trkpt lat="42.49976" lon="2.43403">
        <ele>1957.1</ele>
        <time>2020-08-30T14:49:16.291Z</time>
      </trkpt>
      <trkpt lat="42.49978" lon="2.43419">
        <ele>1958.7</ele>
        <time>2020-08-30T14:49:56.834Z</time>
      </trkpt>
      <trkpt lat="42.49979" lon="2.43427">
        <ele>1958.8</ele>
        <time>2020-08-30T14:50:03.040Z</time>
      </trkpt>
      <trkpt lat="42.49981" lon="2.43433">
        <ele>1959.6</ele>
        <time>2020-08-30T14:50:19.490Z</time>
      </trkpt>
      <trkpt lat="42.49982" lon="2.43439">
        <ele>1960.5</ele>
        <time>2020-08-30T14:50:34.858Z</time>
      </trkpt>
      <trkpt lat="42.49983" lon="2.43445">
        <ele>1961.3</ele>
        <time>2020-08-30T14:50:50.226Z</time>
      </trkpt>
      <trkpt lat="42.49985" lon="2.43453">
        <ele>1962.1</ele>
        <time>2020-08-30T14:51:09.911Z</time>
      </trkpt>
      <trkpt lat="42.49987" lon="2.43459">
        <ele>1962.4</ele>
        <time>2020-08-30T14:51:17.993Z</time>
      </trkpt>
      <trkpt lat="42.49988" lon="2.43471">
        <ele>1962.8</ele>
        <time>2020-08-30T14:51:31.230Z</time>
      </trkpt>
      <trkpt lat="42.49987" lon="2.43475">
        <ele>1962.8</ele>
        <time>2020-08-30T14:51:33.966Z</time>
      </trkpt>
      <trkpt lat="42.49986" lon="2.4348">
        <ele>1962.7</ele>
        <time>2020-08-30T14:51:34.972Z</time>
      </trkpt>
      <trkpt lat="42.49985" lon="2.43485">
        <ele>1962.5</ele>
        <time>2020-08-30T14:51:35.754Z</time>
      </trkpt>
      <trkpt lat="42.49986" lon="2.43493">
        <ele>1961.6</ele>
        <time>2020-08-30T14:51:36.945Z</time>
      </trkpt>
      <trkpt lat="42.49988" lon="2.435">
        <ele>1960.6</ele>
        <time>2020-08-30T14:51:38.048Z</time>
      </trkpt>
      <trkpt lat="42.49988" lon="2.43504">
        <ele>1963.5</ele>
        <time>2020-08-30T14:51:48.041Z</time>
      </trkpt>
      <trkpt lat="42.49984" lon="2.43513">
        <ele>1966.2</ele>
        <time>2020-08-30T14:52:14.295Z</time>
      </trkpt>
      <trkpt lat="42.49983" lon="2.43519">
        <ele>1967.6</ele>
        <time>2020-08-30T14:52:29.663Z</time>
      </trkpt>
      <trkpt lat="42.49982" lon="2.43525">
        <ele>1968.6</ele>
        <time>2020-08-30T14:52:45.031Z</time>
      </trkpt>
      <trkpt lat="42.49982" lon="2.43532">
        <ele>1969.5</ele>
        <time>2020-08-30T14:53:02.518Z</time>
      </trkpt>
      <trkpt lat="42.49982" lon="2.4354">
        <ele>1970.1</ele>
        <time>2020-08-30T14:53:16.224Z</time>
      </trkpt>
      <trkpt lat="42.49982" lon="2.43548">
        <ele>1970.4</ele>
        <time>2020-08-30T14:53:25.335Z</time>
      </trkpt>
      <trkpt lat="42.4998" lon="2.43556">
        <ele>1970.6</ele>
        <time>2020-08-30T14:53:33.087Z</time>
      </trkpt>
      <trkpt lat="42.49978" lon="2.43566">
        <ele>1970.6</ele>
        <time>2020-08-30T14:53:39.798Z</time>
      </trkpt>
      <trkpt lat="42.49976" lon="2.43575">
        <ele>1970.6</ele>
        <time>2020-08-30T14:53:45.886Z</time>
      </trkpt>
      <trkpt lat="42.49975" lon="2.43582">
        <ele>1970.9</ele>
        <time>2020-08-30T14:53:54.353Z</time>
      </trkpt>
      <trkpt lat="42.49973" lon="2.43588">
        <ele>1972.9</ele>
        <time>2020-08-30T14:54:10.804Z</time>
      </trkpt>
      <trkpt lat="42.49973" lon="2.43598">
        <ele>1973.4</ele>
        <time>2020-08-30T14:54:23.626Z</time>
      </trkpt>
      <trkpt lat="42.49977" lon="2.4361">
        <ele>1973.4</ele>
        <time>2020-08-30T14:54:32.156Z</time>
      </trkpt>
      <trkpt lat="42.49978" lon="2.43615">
        <ele>1973.4</ele>
        <time>2020-08-30T14:54:35.511Z</time>
      </trkpt>
      <trkpt lat="42.49979" lon="2.4362">
        <ele>1973.5</ele>
        <time>2020-08-30T14:54:39.925Z</time>
      </trkpt>
      <trkpt lat="42.4998" lon="2.43636">
        <ele>1973.2</ele>
        <time>2020-08-30T14:54:43.072Z</time>
      </trkpt>
      <trkpt lat="42.49981" lon="2.43642">
        <ele>1972.8</ele>
        <time>2020-08-30T14:54:43.975Z</time>
      </trkpt>
      <trkpt lat="42.49982" lon="2.43648">
        <ele>1971.9</ele>
        <time>2020-08-30T14:54:44.879Z</time>
      </trkpt>
      <trkpt lat="42.49984" lon="2.43652">
        <ele>1971.2</ele>
        <time>2020-08-30T14:54:45.589Z</time>
      </trkpt>
      <trkpt lat="42.49986" lon="2.43658">
        <ele>1970</ele>
        <time>2020-08-30T14:54:46.556Z</time>
      </trkpt>
      <trkpt lat="42.49987" lon="2.4367">
        <ele>1969.9</ele>
        <time>2020-08-30T14:54:49.358Z</time>
      </trkpt>
      <trkpt lat="42.49986" lon="2.43677">
        <ele>1971.2</ele>
        <time>2020-08-30T14:55:07.171Z</time>
      </trkpt>
      <trkpt lat="42.49985" lon="2.43683">
        <ele>1972.7</ele>
        <time>2020-08-30T14:55:22.539Z</time>
      </trkpt>
      <trkpt lat="42.49984" lon="2.43688">
        <ele>1973.6</ele>
        <time>2020-08-30T14:55:35.482Z</time>
      </trkpt>
      <trkpt lat="42.49981" lon="2.43694">
        <ele>1974.7</ele>
        <time>2020-08-30T14:55:53.593Z</time>
      </trkpt>
      <trkpt lat="42.49978" lon="2.437">
        <ele>1975.7</ele>
        <time>2020-08-30T14:56:11.705Z</time>
      </trkpt>
      <trkpt lat="42.49975" lon="2.43708">
        <ele>1976.5</ele>
        <time>2020-08-30T14:56:30.687Z</time>
      </trkpt>
      <trkpt lat="42.49971" lon="2.43721">
        <ele>1977.3</ele>
        <time>2020-08-30T14:56:50.074Z</time>
      </trkpt>
      <trkpt lat="42.49969" lon="2.43728">
        <ele>1977.4</ele>
        <time>2020-08-30T14:56:55.901Z</time>
      </trkpt>
      <trkpt lat="42.49969" lon="2.43741">
        <ele>1977</ele>
        <time>2020-08-30T14:56:58.058Z</time>
      </trkpt>
      <trkpt lat="42.4997" lon="2.43748">
        <ele>1976.9</ele>
        <time>2020-08-30T14:56:59.560Z</time>
      </trkpt>
      <trkpt lat="42.4997" lon="2.43756">
        <ele>1979</ele>
        <time>2020-08-30T14:57:19.546Z</time>
      </trkpt>
      <trkpt lat="42.49969" lon="2.43763">
        <ele>1979.4</ele>
        <time>2020-08-30T14:57:29.286Z</time>
      </trkpt>
      <trkpt lat="42.49969" lon="2.4377">
        <ele>1979.9</ele>
        <time>2020-08-30T14:57:40.729Z</time>
      </trkpt>
      <trkpt lat="42.49969" lon="2.43777">
        <ele>1980.4</ele>
        <time>2020-08-30T14:57:52.171Z</time>
      </trkpt>
      <trkpt lat="42.49965" lon="2.43792">
        <ele>1981.7</ele>
        <time>2020-08-30T14:58:22.114Z</time>
      </trkpt>
      <trkpt lat="42.49964" lon="2.43796">
        <ele>1982.1</ele>
        <time>2020-08-30T14:58:31.957Z</time>
      </trkpt>
      <trkpt lat="42.49962" lon="2.43804">
        <ele>1982.5</ele>
        <time>2020-08-30T14:58:42.507Z</time>
      </trkpt>
      <trkpt lat="42.49963" lon="2.43811">
        <ele>1982.4</ele>
        <time>2020-08-30T14:58:44.009Z</time>
      </trkpt>
      <trkpt lat="42.49963" lon="2.43817">
        <ele>1982.1</ele>
        <time>2020-08-30T14:58:44.890Z</time>
      </trkpt>
      <trkpt lat="42.49962" lon="2.43828">
        <ele>1982.6</ele>
        <time>2020-08-30T14:58:58.435Z</time>
      </trkpt>
      <trkpt lat="42.4996" lon="2.43834">
        <ele>1983</ele>
        <time>2020-08-30T14:59:07.902Z</time>
      </trkpt>
      <trkpt lat="42.49958" lon="2.4384">
        <ele>1983.7</ele>
        <time>2020-08-30T14:59:24.352Z</time>
      </trkpt>
      <trkpt lat="42.49955" lon="2.43846">
        <ele>1984.4</ele>
        <time>2020-08-30T14:59:41.840Z</time>
      </trkpt>
      <trkpt lat="42.49953" lon="2.43852">
        <ele>1984.9</ele>
        <time>2020-08-30T14:59:53.263Z</time>
      </trkpt>
      <trkpt lat="42.49948" lon="2.43861">
        <ele>1985.6</ele>
        <time>2020-08-30T15:00:09.719Z</time>
      </trkpt>
      <trkpt lat="42.49944" lon="2.43866">
        <ele>1985.9</ele>
        <time>2020-08-30T15:00:18.367Z</time>
      </trkpt>
      <trkpt lat="42.49942" lon="2.43873">
        <ele>1985.9</ele>
        <time>2020-08-30T15:00:23.229Z</time>
      </trkpt>
      <trkpt lat="42.4994" lon="2.43897">
        <ele>1985.8</ele>
        <time>2020-08-30T15:00:37.634Z</time>
      </trkpt>
      <trkpt lat="42.4994" lon="2.43904">
        <ele>1985.9</ele>
        <time>2020-08-30T15:00:43.146Z</time>
      </trkpt>
      <trkpt lat="42.4994" lon="2.43909">
        <ele>1986.1</ele>
        <time>2020-08-30T15:00:48.971Z</time>
      </trkpt>
      <trkpt lat="42.49938" lon="2.4392">
        <ele>1987.4</ele>
        <time>2020-08-30T15:01:17.275Z</time>
      </trkpt>
      <trkpt lat="42.49942" lon="2.43929">
        <ele>1986.6</ele>
        <time>2020-08-30T15:01:18.819Z</time>
      </trkpt>
      <trkpt lat="42.49944" lon="2.4393">
        <ele>1986.4</ele>
        <time>2020-08-30T15:01:19.244Z</time>
      </trkpt>
      <trkpt lat="42.49949" lon="2.43935">
        <ele>1985.6</ele>
        <time>2020-08-30T15:01:20.481Z</time>
      </trkpt>
      <trkpt lat="42.49953" lon="2.43939">
        <ele>1985.2</ele>
        <time>2020-08-30T15:01:21.471Z</time>
      </trkpt>
      <trkpt lat="42.49954" lon="2.43943">
        <ele>1985.1</ele>
        <time>2020-08-30T15:01:22.241Z</time>
      </trkpt>
      <trkpt lat="42.49956" lon="2.43946">
        <ele>1985.1</ele>
        <time>2020-08-30T15:01:24.861Z</time>
      </trkpt>
      <trkpt lat="42.49956" lon="2.4395">
        <ele>1985.1</ele>
        <time>2020-08-30T15:01:27.452Z</time>
      </trkpt>
      <trkpt lat="42.49969" lon="2.43975">
        <ele>1984.8</ele>
        <time>2020-08-30T15:01:34.364Z</time>
      </trkpt>
      <trkpt lat="42.49996" lon="2.43972">
        <ele>1982.6</ele>
        <time>2020-08-30T15:01:39.761Z</time>
      </trkpt>
      <trkpt lat="42.50018" lon="2.43962">
        <ele>1985.5</ele>
        <time>2020-08-30T15:02:49.828Z</time>
      </trkpt>
      <trkpt lat="42.50018" lon="2.43957">
        <ele>1985.1</ele>
        <time>2020-08-30T15:02:50.562Z</time>
      </trkpt>
      <trkpt lat="42.50018" lon="2.43951">
        <ele>1984.5</ele>
        <time>2020-08-30T15:02:51.444Z</time>
      </trkpt>
      <trkpt lat="42.50018" lon="2.43944">
        <ele>1983.6</ele>
        <time>2020-08-30T15:02:52.472Z</time>
      </trkpt>
      <trkpt lat="42.5002" lon="2.43936">
        <ele>1982.8</ele>
        <time>2020-08-30T15:02:53.713Z</time>
      </trkpt>
      <trkpt lat="42.5002" lon="2.43931">
        <ele>1982.1</ele>
        <time>2020-08-30T15:02:54.447Z</time>
      </trkpt>
      <trkpt lat="42.50022" lon="2.43923">
        <ele>1981.7</ele>
        <time>2020-08-30T15:02:55.605Z</time>
      </trkpt>
      <trkpt lat="42.50024" lon="2.43919">
        <ele>1982</ele>
        <time>2020-08-30T15:03:02.659Z</time>
      </trkpt>
      <trkpt lat="42.50028" lon="2.43915">
        <ele>1977.6</ele>
        <time>2020-08-30T15:03:03.649Z</time>
      </trkpt>
      <trkpt lat="42.50033" lon="2.43911">
        <ele>1978.5</ele>
        <time>2020-08-30T15:03:23.319Z</time>
      </trkpt>
      <trkpt lat="42.50037" lon="2.43907">
        <ele>1979.3</ele>
        <time>2020-08-30T15:03:40.159Z</time>
      </trkpt>
      <trkpt lat="42.5004" lon="2.43901">
        <ele>1979.7</ele>
        <time>2020-08-30T15:03:49.965Z</time>
      </trkpt>
      <trkpt lat="42.50043" lon="2.43893">
        <ele>1979.9</ele>
        <time>2020-08-30T15:03:58.003Z</time>
      </trkpt>
      <trkpt lat="42.50046" lon="2.43886">
        <ele>1980</ele>
        <time>2020-08-30T15:04:04.198Z</time>
      </trkpt>
      <trkpt lat="42.50052" lon="2.43875">
        <ele>1980</ele>
        <time>2020-08-30T15:04:13.061Z</time>
      </trkpt>
      <trkpt lat="42.50056" lon="2.43867">
        <ele>1980</ele>
        <time>2020-08-30T15:04:19.321Z</time>
      </trkpt>
      <trkpt lat="42.50061" lon="2.43858">
        <ele>1980.1</ele>
        <time>2020-08-30T15:04:27.525Z</time>
      </trkpt>
      <trkpt lat="42.50065" lon="2.43849">
        <ele>1980.4</ele>
        <time>2020-08-30T15:04:38.072Z</time>
      </trkpt>
      <trkpt lat="42.5007" lon="2.43841">
        <ele>1981</ele>
        <time>2020-08-30T15:04:52.571Z</time>
      </trkpt>
      <trkpt lat="42.50074" lon="2.43833">
        <ele>1978</ele>
        <time>2020-08-30T15:04:53.991Z</time>
      </trkpt>
      <trkpt lat="42.50078" lon="2.43825">
        <ele>1977.8</ele>
        <time>2020-08-30T15:04:55.830Z</time>
      </trkpt>
      <trkpt lat="42.50082" lon="2.4382">
        <ele>1976.3</ele>
        <time>2020-08-30T15:04:56.913Z</time>
      </trkpt>
      <trkpt lat="42.50086" lon="2.43815">
        <ele>1982.7</ele>
        <time>2020-08-30T15:05:15.345Z</time>
      </trkpt>
      <trkpt lat="42.5009" lon="2.4381">
        <ele>1982.5</ele>
        <time>2020-08-30T15:05:16.629Z</time>
      </trkpt>
      <trkpt lat="42.50095" lon="2.43807">
        <ele>1982.5</ele>
        <time>2020-08-30T15:05:21.432Z</time>
      </trkpt>
      <trkpt lat="42.501" lon="2.43805">
        <ele>1982.7</ele>
        <time>2020-08-30T15:05:28.493Z</time>
      </trkpt>
      <trkpt lat="42.50113" lon="2.43801">
        <ele>1983.7</ele>
        <time>2020-08-30T15:05:52.984Z</time>
      </trkpt>
      <trkpt lat="42.50121" lon="2.43798">
        <ele>1984.5</ele>
        <time>2020-08-30T15:06:11.301Z</time>
      </trkpt>
      <trkpt lat="42.50127" lon="2.43795">
        <ele>1985.1</ele>
        <time>2020-08-30T15:06:25.081Z</time>
      </trkpt>
      <trkpt lat="42.50134" lon="2.43793">
        <ele>1985.9</ele>
        <time>2020-08-30T15:06:43.553Z</time>
      </trkpt>
      <trkpt lat="42.50141" lon="2.43791">
        <ele>1986.6</ele>
        <time>2020-08-30T15:06:59.561Z</time>
      </trkpt>
      <trkpt lat="42.50148" lon="2.43788">
        <ele>1987.1</ele>
        <time>2020-08-30T15:07:12.356Z</time>
      </trkpt>
      <trkpt lat="42.50154" lon="2.43785">
        <ele>1987.1</ele>
        <time>2020-08-30T15:07:17.973Z</time>
      </trkpt>
      <trkpt lat="42.50159" lon="2.4378">
        <ele>1986.6</ele>
        <time>2020-08-30T15:07:19.211Z</time>
      </trkpt>
      <trkpt lat="42.50164" lon="2.43774">
        <ele>1985.9</ele>
        <time>2020-08-30T15:07:20.541Z</time>
      </trkpt>
      <trkpt lat="42.50168" lon="2.43768">
        <ele>1997</ele>
        <time>2020-08-30T15:07:40.749Z</time>
      </trkpt>
      <trkpt lat="42.50172" lon="2.43762">
        <ele>1994.7</ele>
        <time>2020-08-30T15:07:41.938Z</time>
      </trkpt>
      <trkpt lat="42.50177" lon="2.43757">
        <ele>1994.2</ele>
        <time>2020-08-30T15:07:43.175Z</time>
      </trkpt>
      <trkpt lat="42.50182" lon="2.43752">
        <ele>1995.7</ele>
        <time>2020-08-30T15:08:04.224Z</time>
      </trkpt>
      <trkpt lat="42.50186" lon="2.43747">
        <ele>1988</ele>
        <time>2020-08-30T15:08:05.308Z</time>
      </trkpt>
      <trkpt lat="42.5019" lon="2.43741">
        <ele>1988.7</ele>
        <time>2020-08-30T15:08:21.709Z</time>
      </trkpt>
      <trkpt lat="42.50192" lon="2.43736">
        <ele>1989.1</ele>
        <time>2020-08-30T15:08:30.877Z</time>
      </trkpt>
      <trkpt lat="42.50195" lon="2.43733">
        <ele>1989.4</ele>
        <time>2020-08-30T15:08:38.032Z</time>
      </trkpt>
      <trkpt lat="42.50197" lon="2.43731">
        <ele>1989.8</ele>
        <time>2020-08-30T15:08:46.452Z</time>
      </trkpt>
      <trkpt lat="42.502" lon="2.43731">
        <ele>1990.4</ele>
        <time>2020-08-30T15:08:56.617Z</time>
      </trkpt>
      <trkpt lat="42.50204" lon="2.4373">
        <ele>1991.2</ele>
        <time>2020-08-30T15:09:10.400Z</time>
      </trkpt>
      <trkpt lat="42.5021" lon="2.4373">
        <ele>1992.4</ele>
        <time>2020-08-30T15:09:30.730Z</time>
      </trkpt>
      <trkpt lat="42.5022" lon="2.43731">
        <ele>1994.7</ele>
        <time>2020-08-30T15:10:04.707Z</time>
      </trkpt>
      <trkpt lat="42.50225" lon="2.43731">
        <ele>1996.1</ele>
        <time>2020-08-30T15:10:21.650Z</time>
      </trkpt>
      <trkpt lat="42.50232" lon="2.43732">
        <ele>1998</ele>
        <time>2020-08-30T15:10:45.500Z</time>
      </trkpt>
      <trkpt lat="42.50239" lon="2.43732">
        <ele>1999.8</ele>
        <time>2020-08-30T15:11:09.220Z</time>
      </trkpt>
      <trkpt lat="42.50244" lon="2.43732">
        <ele>2000.7</ele>
        <time>2020-08-30T15:11:26.162Z</time>
      </trkpt>
      <trkpt lat="42.50248" lon="2.43732">
        <ele>2001.2</ele>
        <time>2020-08-30T15:11:38.244Z</time>
      </trkpt>
      <trkpt lat="42.50251" lon="2.43731">
        <ele>2017.2</ele>
        <time>2020-08-30T15:11:48.712Z</time>
      </trkpt>
      <trkpt lat="42.50253" lon="2.43729">
        <ele>2017.7</ele>
        <time>2020-08-30T15:11:57.131Z</time>
      </trkpt>
      <trkpt lat="42.50254" lon="2.43726">
        <ele>2018.1</ele>
        <time>2020-08-30T15:12:05.356Z</time>
      </trkpt>
      <trkpt lat="42.50254" lon="2.43722">
        <ele>2018.5</ele>
        <time>2020-08-30T15:12:15.349Z</time>
      </trkpt>
      <trkpt lat="42.50254" lon="2.43717">
        <ele>2018.6</ele>
        <time>2020-08-30T15:12:19.658Z</time>
      </trkpt>
      <trkpt lat="42.50254" lon="2.4371">
        <ele>2018.4</ele>
        <time>2020-08-30T15:12:20.852Z</time>
      </trkpt>
      <trkpt lat="42.50253" lon="2.43703">
        <ele>2017.7</ele>
        <time>2020-08-30T15:12:21.900Z</time>
      </trkpt>
      <trkpt lat="42.50253" lon="2.43699">
        <ele>2017.1</ele>
        <time>2020-08-30T15:12:22.487Z</time>
      </trkpt>
      <trkpt lat="42.50253" lon="2.43694">
        <ele>2016</ele>
        <time>2020-08-30T15:12:23.222Z</time>
      </trkpt>
      <trkpt lat="42.50253" lon="2.43688">
        <ele>2014.3</ele>
        <time>2020-08-30T15:12:24.103Z</time>
      </trkpt>
      <trkpt lat="42.50253" lon="2.43683">
        <ele>2012.8</ele>
        <time>2020-08-30T15:12:24.837Z</time>
      </trkpt>
      <trkpt lat="42.50255" lon="2.43677">
        <ele>2010.5</ele>
        <time>2020-08-30T15:12:25.804Z</time>
      </trkpt>
      <trkpt lat="42.50258" lon="2.43672">
        <ele>2009.3</ele>
        <time>2020-08-30T15:12:26.751Z</time>
      </trkpt>
      <trkpt lat="42.50263" lon="2.43665">
        <ele>2007.9</ele>
        <time>2020-08-30T15:12:28.183Z</time>
      </trkpt>
      <trkpt lat="42.50268" lon="2.43656">
        <ele>2010.4</ele>
        <time>2020-08-30T15:12:56.335Z</time>
      </trkpt>
      <trkpt lat="42.50271" lon="2.43652">
        <ele>2011.5</ele>
        <time>2020-08-30T15:13:10.589Z</time>
      </trkpt>
      <trkpt lat="42.50275" lon="2.43646">
        <ele>2012.8</ele>
        <time>2020-08-30T15:13:30.798Z</time>
      </trkpt>
      <trkpt lat="42.50279" lon="2.43639">
        <ele>2013.6</ele>
        <time>2020-08-30T15:13:49.909Z</time>
      </trkpt>
      <trkpt lat="42.50283" lon="2.43629">
        <ele>2014</ele>
        <time>2020-08-30T15:14:02.601Z</time>
      </trkpt>
      <trkpt lat="42.50286" lon="2.43619">
        <ele>2014.1</ele>
        <time>2020-08-30T15:14:10.503Z</time>
      </trkpt>
      <trkpt lat="42.50289" lon="2.43609">
        <ele>2014.2</ele>
        <time>2020-08-30T15:14:18.404Z</time>
      </trkpt>
      <trkpt lat="42.50294" lon="2.43595">
        <ele>2015.1</ele>
        <time>2020-08-30T15:14:40.062Z</time>
      </trkpt>
      <trkpt lat="42.50299" lon="2.43583">
        <ele>2010</ele>
        <time>2020-08-30T15:14:42.087Z</time>
      </trkpt>
      <trkpt lat="42.50304" lon="2.43568">
        <ele>2011.2</ele>
        <time>2020-08-30T15:15:09.512Z</time>
      </trkpt>
      <trkpt lat="42.5031" lon="2.43553">
        <ele>2010.9</ele>
        <time>2020-08-30T15:15:12.912Z</time>
      </trkpt>
      <trkpt lat="42.50315" lon="2.43541">
        <ele>2010.8</ele>
        <time>2020-08-30T15:15:16.170Z</time>
      </trkpt>
      <trkpt lat="42.5032" lon="2.43529">
        <ele>2011.5</ele>
        <time>2020-08-30T15:15:33.984Z</time>
      </trkpt>
      <trkpt lat="42.50324" lon="2.43521">
        <ele>2012.9</ele>
        <time>2020-08-30T15:15:58.131Z</time>
      </trkpt>
      <trkpt lat="42.50327" lon="2.43514">
        <ele>2014.9</ele>
        <time>2020-08-30T15:16:18.358Z</time>
      </trkpt>
      <trkpt lat="42.5033" lon="2.43507">
        <ele>2017.4</ele>
        <time>2020-08-30T15:16:38.585Z</time>
      </trkpt>
      <trkpt lat="42.50332" lon="2.43502">
        <ele>2020.2</ele>
        <time>2020-08-30T15:16:52.796Z</time>
      </trkpt>
      <trkpt lat="42.50332" lon="2.43498">
        <ele>2019.6</ele>
        <time>2020-08-30T15:16:53.383Z</time>
      </trkpt>
      <trkpt lat="42.50334" lon="2.43498">
        <ele>2023.3</ele>
        <time>2020-08-30T15:17:00.160Z</time>
      </trkpt>
      <trkpt lat="42.50334" lon="2.435">
        <ele>2022.3</ele>
        <time>2020-08-30T15:17:00.454Z</time>
      </trkpt>
      <trkpt lat="42.50334" lon="2.43513">
        <ele>2031.9</ele>
        <time>2020-08-30T15:17:32.930Z</time>
      </trkpt>
      <trkpt lat="42.50334" lon="2.4352">
        <ele>2035.3</ele>
        <time>2020-08-30T15:17:50.417Z</time>
      </trkpt>
      <trkpt lat="42.50333" lon="2.43529">
        <ele>2013.3</ele>
        <time>2020-08-30T15:17:51.753Z</time>
      </trkpt>
      <trkpt lat="42.50333" lon="2.43538">
        <ele>2013.2</ele>
        <time>2020-08-30T15:17:53.742Z</time>
      </trkpt>
      <trkpt lat="42.50332" lon="2.43548">
        <ele>2014.2</ele>
        <time>2020-08-30T15:18:18.952Z</time>
      </trkpt>
      <trkpt lat="42.50331" lon="2.43558">
        <ele>2016.4</ele>
        <time>2020-08-30T15:18:44.162Z</time>
      </trkpt>
      <trkpt lat="42.5033" lon="2.43573">
        <ele>2022.7</ele>
        <time>2020-08-30T15:19:21.787Z</time>
      </trkpt>
      <trkpt lat="42.50329" lon="2.43585">
        <ele>2029.1</ele>
        <time>2020-08-30T15:19:51.955Z</time>
      </trkpt>
      <trkpt lat="42.50328" lon="2.436">
        <ele>2024.6</ele>
        <time>2020-08-30T15:19:54.168Z</time>
      </trkpt>
      <trkpt lat="42.50326" lon="2.43613">
        <ele>2022.7</ele>
        <time>2020-08-30T15:19:56.118Z</time>
      </trkpt>
      <trkpt lat="42.50324" lon="2.43629">
        <ele>2023.2</ele>
        <time>2020-08-30T15:20:13.147Z</time>
      </trkpt>
      <trkpt lat="42.50323" lon="2.43639">
        <ele>2024.7</ele>
        <time>2020-08-30T15:20:38.357Z</time>
      </trkpt>
      <trkpt lat="42.50323" lon="2.43646">
        <ele>2026.4</ele>
        <time>2020-08-30T15:20:55.844Z</time>
      </trkpt>
      <trkpt lat="42.50322" lon="2.43653">
        <ele>2028.4</ele>
        <time>2020-08-30T15:21:13.656Z</time>
      </trkpt>
      <trkpt lat="42.50321" lon="2.43661">
        <ele>2030.5</ele>
        <time>2020-08-30T15:21:33.927Z</time>
      </trkpt>
      <trkpt lat="42.5032" lon="2.43669">
        <ele>2033.9</ele>
        <time>2020-08-30T15:21:54.197Z</time>
      </trkpt>
      <trkpt lat="42.50318" lon="2.43676">
        <ele>2032.4</ele>
        <time>2020-08-30T15:21:55.300Z</time>
      </trkpt>
      <trkpt lat="42.50317" lon="2.43683">
        <ele>2031.3</ele>
        <time>2020-08-30T15:21:56.347Z</time>
      </trkpt>
      <trkpt lat="42.50316" lon="2.4369">
        <ele>2030.3</ele>
        <time>2020-08-30T15:21:57.394Z</time>
      </trkpt>
      <trkpt lat="42.50315" lon="2.43694">
        <ele>2029.9</ele>
        <time>2020-08-30T15:21:58.014Z</time>
      </trkpt>
      <trkpt lat="42.50315" lon="2.43699">
        <ele>2029.6</ele>
        <time>2020-08-30T15:21:58.749Z</time>
      </trkpt>
      <trkpt lat="42.50314" lon="2.43705">
        <ele>2029.4</ele>
        <time>2020-08-30T15:21:59.747Z</time>
      </trkpt>
      <trkpt lat="42.50313" lon="2.4371">
        <ele>2029.5</ele>
        <time>2020-08-30T15:22:04.161Z</time>
      </trkpt>
      <trkpt lat="42.50311" lon="2.43723">
        <ele>2030.3</ele>
        <time>2020-08-30T15:22:23.145Z</time>
      </trkpt>
      <trkpt lat="42.50313" lon="2.43728">
        <ele>2031.4</ele>
        <time>2020-08-30T15:22:37.356Z</time>
      </trkpt>
      <trkpt lat="42.50314" lon="2.43732">
        <ele>2032.3</ele>
        <time>2020-08-30T15:22:47.907Z</time>
      </trkpt>
      <trkpt lat="42.50317" lon="2.43735">
        <ele>2033.7</ele>
        <time>2020-08-30T15:23:00.536Z</time>
      </trkpt>
      <trkpt lat="42.5032" lon="2.43738">
        <ele>2035.3</ele>
        <time>2020-08-30T15:23:13.166Z</time>
      </trkpt>
      <trkpt lat="42.50329" lon="2.43748">
        <ele>2042.2</ele>
        <time>2020-08-30T15:23:52.588Z</time>
      </trkpt>
      <trkpt lat="42.50332" lon="2.43753">
        <ele>2044.5</ele>
        <time>2020-08-30T15:24:08.692Z</time>
      </trkpt>
      <trkpt lat="42.50335" lon="2.43758">
        <ele>2051</ele>
        <time>2020-08-30T15:24:24.797Z</time>
      </trkpt>
      <trkpt lat="42.50338" lon="2.43764">
        <ele>2053.9</ele>
        <time>2020-08-30T15:24:42.908Z</time>
      </trkpt>
      <trkpt lat="42.50341" lon="2.43773">
        <ele>2057</ele>
        <time>2020-08-30T15:25:07.582Z</time>
      </trkpt>
      <trkpt lat="42.50344" lon="2.43781">
        <ele>2058.6</ele>
        <time>2020-08-30T15:25:30.004Z</time>
      </trkpt>
      <trkpt lat="42.50346" lon="2.43789">
        <ele>2059.6</ele>
        <time>2020-08-30T15:25:51.107Z</time>
      </trkpt>
      <trkpt lat="42.50349" lon="2.43796">
        <ele>2060.1</ele>
        <time>2020-08-30T15:26:02.881Z</time>
      </trkpt>
      <trkpt lat="42.50352" lon="2.43801">
        <ele>2060.4</ele>
        <time>2020-08-30T15:26:10.868Z</time>
      </trkpt>
      <trkpt lat="42.50354" lon="2.43806">
        <ele>2060.6</ele>
        <time>2020-08-30T15:26:17.214Z</time>
      </trkpt>
      <trkpt lat="42.50357" lon="2.43816">
        <ele>2060.5</ele>
        <time>2020-08-30T15:26:19.676Z</time>
      </trkpt>
      <trkpt lat="42.50356" lon="2.43831">
        <ele>2059.4</ele>
        <time>2020-08-30T15:26:21.888Z</time>
      </trkpt>
      <trkpt lat="42.50354" lon="2.43835">
        <ele>2063.4</ele>
        <time>2020-08-30T15:26:33.962Z</time>
      </trkpt>
      <trkpt lat="42.50352" lon="2.4384">
        <ele>2062.8</ele>
        <time>2020-08-30T15:26:34.798Z</time>
      </trkpt>
      <trkpt lat="42.50345" lon="2.43856">
        <ele>2065</ele>
        <time>2020-08-30T15:27:21.276Z</time>
      </trkpt>
      <trkpt lat="42.50342" lon="2.43874">
        <ele>2068.7</ele>
        <time>2020-08-30T15:28:07.377Z</time>
      </trkpt>
      <trkpt lat="42.50337" lon="2.43881">
        <ele>2069.1</ele>
        <time>2020-08-30T15:28:18.840Z</time>
      </trkpt>
      <trkpt lat="42.50329" lon="2.43881">
        <ele>2053.5</ele>
        <time>2020-08-30T15:28:20.434Z</time>
      </trkpt>
      <trkpt lat="42.50324" lon="2.43879">
        <ele>2052.8</ele>
        <time>2020-08-30T15:28:21.472Z</time>
      </trkpt>
      <trkpt lat="42.50318" lon="2.43878">
        <ele>2052.1</ele>
        <time>2020-08-30T15:28:22.677Z</time>
      </trkpt>
      <trkpt lat="42.50305" lon="2.43875">
        <ele>2050.5</ele>
        <time>2020-08-30T15:28:25.304Z</time>
      </trkpt>
      <trkpt lat="42.50296" lon="2.43867">
        <ele>2048.6</ele>
        <time>2020-08-30T15:28:27.447Z</time>
      </trkpt>
      <trkpt lat="42.50294" lon="2.43865">
        <ele>2048.2</ele>
        <time>2020-08-30T15:28:27.943Z</time>
      </trkpt>
      <trkpt lat="42.50291" lon="2.43865">
        <ele>2047.8</ele>
        <time>2020-08-30T15:28:28.540Z</time>
      </trkpt>
      <trkpt lat="42.50288" lon="2.43866">
        <ele>2047.5</ele>
        <time>2020-08-30T15:28:29.156Z</time>
      </trkpt>
      <trkpt lat="42.50285" lon="2.43867">
        <ele>2047.3</ele>
        <time>2020-08-30T15:28:29.728Z</time>
      </trkpt>
      <trkpt lat="42.5028" lon="2.43874">
        <ele>2047.5</ele>
        <time>2020-08-30T15:28:38.200Z</time>
      </trkpt>
      <trkpt lat="42.50279" lon="2.43877">
        <ele>2047.8</ele>
        <time>2020-08-30T15:28:45.401Z</time>
      </trkpt>
      <trkpt lat="42.50278" lon="2.43881">
        <ele>2048.2</ele>
        <time>2020-08-30T15:28:55.244Z</time>
      </trkpt>
      <trkpt lat="42.50278" lon="2.43886">
        <ele>2048.7</ele>
        <time>2020-08-30T15:29:07.735Z</time>
      </trkpt>
      <trkpt lat="42.50279" lon="2.43896">
        <ele>2049.5</ele>
        <time>2020-08-30T15:29:26.077Z</time>
      </trkpt>
      <trkpt lat="42.50279" lon="2.43905">
        <ele>2050</ele>
        <time>2020-08-30T15:29:38.300Z</time>
      </trkpt>
      <trkpt lat="42.50279" lon="2.43914">
        <ele>2050.4</ele>
        <time>2020-08-30T15:29:49.229Z</time>
      </trkpt>
      <trkpt lat="42.5028" lon="2.43921">
        <ele>2059.8</ele>
        <time>2020-08-30T15:30:07.042Z</time>
      </trkpt>
      <trkpt lat="42.5028" lon="2.43924">
        <ele>2059.9</ele>
        <time>2020-08-30T15:30:10.336Z</time>
      </trkpt>
      <trkpt lat="42.5028" lon="2.43931">
        <ele>2060.6</ele>
        <time>2020-08-30T15:30:27.823Z</time>
      </trkpt>
      <trkpt lat="42.50281" lon="2.43938">
        <ele>2061.3</ele>
        <time>2020-08-30T15:30:45.566Z</time>
      </trkpt>
      <trkpt lat="42.50282" lon="2.43945">
        <ele>2062.2</ele>
        <time>2020-08-30T15:31:03.378Z</time>
      </trkpt>
      <trkpt lat="42.50283" lon="2.43954">
        <ele>2063.1</ele>
        <time>2020-08-30T15:31:26.115Z</time>
      </trkpt>
      <trkpt lat="42.50284" lon="2.43963">
        <ele>2064</ele>
        <time>2020-08-30T15:31:48.852Z</time>
      </trkpt>
      <trkpt lat="42.50284" lon="2.43971">
        <ele>2064.6</ele>
        <time>2020-08-30T15:32:02.557Z</time>
      </trkpt>
      <trkpt lat="42.50284" lon="2.43981">
        <ele>2065.1</ele>
        <time>2020-08-30T15:32:15.379Z</time>
      </trkpt>
      <trkpt lat="42.50284" lon="2.43986">
        <ele>2065.3</ele>
        <time>2020-08-30T15:32:21.204Z</time>
      </trkpt>
      <trkpt lat="42.50284" lon="2.43995">
        <ele>2065.6</ele>
        <time>2020-08-30T15:32:31.087Z</time>
      </trkpt>
      <trkpt lat="42.50284" lon="2.44006">
        <ele>2074.6</ele>
        <time>2020-08-30T15:32:58.566Z</time>
      </trkpt>
      <trkpt lat="42.50283" lon="2.44022">
        <ele>2075.7</ele>
        <time>2020-08-30T15:33:23.865Z</time>
      </trkpt>
      <trkpt lat="42.50283" lon="2.44033">
        <ele>2076.7</ele>
        <time>2020-08-30T15:33:47.837Z</time>
      </trkpt>
      <trkpt lat="42.50281" lon="2.44041">
        <ele>2077.4</ele>
        <time>2020-08-30T15:34:04.020Z</time>
      </trkpt>
      <trkpt lat="42.50276" lon="2.44048">
        <ele>2077.4</ele>
        <time>2020-08-30T15:34:10.333Z</time>
      </trkpt>
      <trkpt lat="42.50268" lon="2.44054">
        <ele>2077.1</ele>
        <time>2020-08-30T15:34:12.577Z</time>
      </trkpt>
      <trkpt lat="42.50263" lon="2.44061">
        <ele>2076.9</ele>
        <time>2020-08-30T15:34:14.435Z</time>
      </trkpt>
      <trkpt lat="42.50256" lon="2.44072">
        <ele>2076.4</ele>
        <time>2020-08-30T15:34:16.740Z</time>
      </trkpt>
      <trkpt lat="42.50253" lon="2.44086">
        <ele>2077.3</ele>
        <time>2020-08-30T15:34:37.935Z</time>
      </trkpt>
      <trkpt lat="42.50253" lon="2.4409">
        <ele>2079.2</ele>
        <time>2020-08-30T15:34:47.928Z</time>
      </trkpt>
      <trkpt lat="42.50254" lon="2.44094">
        <ele>2080.8</ele>
        <time>2020-08-30T15:34:58.479Z</time>
      </trkpt>
      <trkpt lat="42.50255" lon="2.44098">
        <ele>2082.2</ele>
        <time>2020-08-30T15:35:09.031Z</time>
      </trkpt>
      <trkpt lat="42.50255" lon="2.44103">
        <ele>2083.7</ele>
        <time>2020-08-30T15:35:21.521Z</time>
      </trkpt>
      <trkpt lat="42.50254" lon="2.44107">
        <ele>2084.5</ele>
        <time>2020-08-30T15:35:32.073Z</time>
      </trkpt>
      <trkpt lat="42.50253" lon="2.44111">
        <ele>2085.1</ele>
        <time>2020-08-30T15:35:42.625Z</time>
      </trkpt>
      <trkpt lat="42.50252" lon="2.44117">
        <ele>2085.9</ele>
        <time>2020-08-30T15:35:57.992Z</time>
      </trkpt>
      <trkpt lat="42.5025" lon="2.44123">
        <ele>2070</ele>
        <time>2020-08-30T15:35:58.959Z</time>
      </trkpt>
      <trkpt lat="42.50248" lon="2.44129">
        <ele>2070.4</ele>
        <time>2020-08-30T15:36:08.425Z</time>
      </trkpt>
      <trkpt lat="42.50247" lon="2.44134">
        <ele>2070.9</ele>
        <time>2020-08-30T15:36:20.912Z</time>
      </trkpt>
      <trkpt lat="42.50245" lon="2.44142">
        <ele>2072.1</ele>
        <time>2020-08-30T15:36:42.015Z</time>
      </trkpt>
      <trkpt lat="42.50243" lon="2.44149">
        <ele>2073.7</ele>
        <time>2020-08-30T15:37:00.769Z</time>
      </trkpt>
      <trkpt lat="42.50241" lon="2.44157">
        <ele>2075.5</ele>
        <time>2020-08-30T15:37:21.872Z</time>
      </trkpt>
      <trkpt lat="42.5024" lon="2.44165">
        <ele>2077</ele>
        <time>2020-08-30T15:37:42.143Z</time>
      </trkpt>
      <trkpt lat="42.5024" lon="2.44174">
        <ele>2077.4</ele>
        <time>2020-08-30T15:37:53.072Z</time>
      </trkpt>
      <trkpt lat="42.50237" lon="2.44183">
        <ele>2075.4</ele>
        <time>2020-08-30T15:37:54.522Z</time>
      </trkpt>
      <trkpt lat="42.50235" lon="2.44193">
        <ele>2073.9</ele>
        <time>2020-08-30T15:37:56.044Z</time>
      </trkpt>
      <trkpt lat="42.50234" lon="2.44202">
        <ele>2073.3</ele>
        <time>2020-08-30T15:37:57.381Z</time>
      </trkpt>
      <trkpt lat="42.50235" lon="2.44209">
        <ele>2073.5</ele>
        <time>2020-08-30T15:38:04.469Z</time>
      </trkpt>
      <trkpt lat="42.50236" lon="2.44216">
        <ele>2074.2</ele>
        <time>2020-08-30T15:38:22.212Z</time>
      </trkpt>
      <trkpt lat="42.50237" lon="2.44223">
        <ele>2075.1</ele>
        <time>2020-08-30T15:38:40.025Z</time>
      </trkpt>
      <trkpt lat="42.50239" lon="2.4423">
        <ele>2076.7</ele>
        <time>2020-08-30T15:38:58.779Z</time>
      </trkpt>
      <trkpt lat="42.50241" lon="2.44236">
        <ele>2078.7</ele>
        <time>2020-08-30T15:39:15.229Z</time>
      </trkpt>
      <trkpt lat="42.50244" lon="2.44243">
        <ele>2081.8</ele>
        <time>2020-08-30T15:39:35.456Z</time>
      </trkpt>
      <trkpt lat="42.50246" lon="2.44249">
        <ele>2084.7</ele>
        <time>2020-08-30T15:39:51.906Z</time>
      </trkpt>
      <trkpt lat="42.50247" lon="2.44256">
        <ele>2083.5</ele>
        <time>2020-08-30T15:39:52.953Z</time>
      </trkpt>
      <trkpt lat="42.50249" lon="2.44262">
        <ele>2081.2</ele>
        <time>2020-08-30T15:39:53.920Z</time>
      </trkpt>
      <trkpt lat="42.50252" lon="2.44266">
        <ele>2093.4</ele>
        <time>2020-08-30T15:40:08.175Z</time>
      </trkpt>
      <trkpt lat="42.50255" lon="2.44271">
        <ele>2094.4</ele>
        <time>2020-08-30T15:40:24.279Z</time>
      </trkpt>
      <trkpt lat="42.50257" lon="2.44276">
        <ele>2095.2</ele>
        <time>2020-08-30T15:40:38.490Z</time>
      </trkpt>
      <trkpt lat="42.5026" lon="2.44283">
        <ele>2095.8</ele>
        <time>2020-08-30T15:40:52.196Z</time>
      </trkpt>
      <trkpt lat="42.50263" lon="2.44288">
        <ele>2096.1</ele>
        <time>2020-08-30T15:41:00.183Z</time>
      </trkpt>
      <trkpt lat="42.50265" lon="2.44293">
        <ele>2096.2</ele>
        <time>2020-08-30T15:41:04.897Z</time>
      </trkpt>
      <trkpt lat="42.50268" lon="2.44299">
        <ele>2096.3</ele>
        <time>2020-08-30T15:41:10.563Z</time>
      </trkpt>
      <trkpt lat="42.50271" lon="2.44304">
        <ele>2096.3</ele>
        <time>2020-08-30T15:41:14.739Z</time>
      </trkpt>
      <trkpt lat="42.50274" lon="2.4431">
        <ele>2096.4</ele>
        <time>2020-08-30T15:41:20.405Z</time>
      </trkpt>
      <trkpt lat="42.50278" lon="2.44317">
        <ele>2096.7</ele>
        <time>2020-08-30T15:41:30.175Z</time>
      </trkpt>
      <trkpt lat="42.50281" lon="2.44323">
        <ele>2097.2</ele>
        <time>2020-08-30T15:41:41.664Z</time>
      </trkpt>
      <trkpt lat="42.50285" lon="2.44331">
        <ele>2098.2</ele>
        <time>2020-08-30T15:42:05.811Z</time>
      </trkpt>
      <trkpt lat="42.50289" lon="2.44337">
        <ele>2096.8</ele>
        <time>2020-08-30T15:42:07.000Z</time>
      </trkpt>
      <trkpt lat="42.50292" lon="2.44343">
        <ele>2097.7</ele>
        <time>2020-08-30T15:42:25.110Z</time>
      </trkpt>
      <trkpt lat="42.50295" lon="2.44348">
        <ele>2098.5</ele>
        <time>2020-08-30T15:42:41.215Z</time>
      </trkpt>
      <trkpt lat="42.50297" lon="2.44351">
        <ele>2098.9</ele>
        <time>2020-08-30T15:42:51.319Z</time>
      </trkpt>
      <trkpt lat="42.503" lon="2.44356">
        <ele>2099.5</ele>
        <time>2020-08-30T15:43:05.908Z</time>
      </trkpt>
      <trkpt lat="42.50304" lon="2.44362">
        <ele>2100</ele>
        <time>2020-08-30T15:43:17.678Z</time>
      </trkpt>
      <trkpt lat="42.50308" lon="2.44367">
        <ele>2100.3</ele>
        <time>2020-08-30T15:43:26.326Z</time>
      </trkpt>
      <trkpt lat="42.50314" lon="2.44372">
        <ele>2100.9</ele>
        <time>2020-08-30T15:43:40.386Z</time>
      </trkpt>
      <trkpt lat="42.50318" lon="2.44376">
        <ele>2101.4</ele>
        <time>2020-08-30T15:43:51.807Z</time>
      </trkpt>
      <trkpt lat="42.50324" lon="2.44381">
        <ele>2101.8</ele>
        <time>2020-08-30T15:44:03.129Z</time>
      </trkpt>
      <trkpt lat="42.50327" lon="2.44385">
        <ele>2102</ele>
        <time>2020-08-30T15:44:09.489Z</time>
      </trkpt>
      <trkpt lat="42.5033" lon="2.4439">
        <ele>2102.4</ele>
        <time>2020-08-30T15:44:18.895Z</time>
      </trkpt>
      <trkpt lat="42.50334" lon="2.44397">
        <ele>2120.3</ele>
        <time>2020-08-30T15:44:41.019Z</time>
      </trkpt>
      <trkpt lat="42.50338" lon="2.44403">
        <ele>2118.2</ele>
        <time>2020-08-30T15:44:42.208Z</time>
      </trkpt>
      <trkpt lat="42.5034" lon="2.4441">
        <ele>2115.7</ele>
        <time>2020-08-30T15:44:43.310Z</time>
      </trkpt>
      <trkpt lat="42.50344" lon="2.4442">
        <ele>2114.6</ele>
        <time>2020-08-30T15:44:44.981Z</time>
      </trkpt>
      <trkpt lat="42.50346" lon="2.44424">
        <ele>2116</ele>
        <time>2020-08-30T15:44:57.055Z</time>
      </trkpt>
      <trkpt lat="42.5035" lon="2.44429">
        <ele>2118</ele>
        <time>2020-08-30T15:45:15.487Z</time>
      </trkpt>
      <trkpt lat="42.50353" lon="2.44434">
        <ele>2119.5</ele>
        <time>2020-08-30T15:45:31.591Z</time>
      </trkpt>
      <trkpt lat="42.50354" lon="2.44436">
        <ele>2119.8</ele>
        <time>2020-08-30T15:45:37.628Z</time>
      </trkpt>
      <trkpt lat="42.50357" lon="2.44441">
        <ele>2120.8</ele>
        <time>2020-08-30T15:45:53.732Z</time>
      </trkpt>
      <trkpt lat="42.50358" lon="2.44443">
        <ele>2121.4</ele>
        <time>2020-08-30T15:45:59.769Z</time>
      </trkpt>
      <trkpt lat="42.5036" lon="2.44448">
        <ele>2121.9</ele>
        <time>2020-08-30T15:46:11.559Z</time>
      </trkpt>
      <trkpt lat="42.50363" lon="2.44452">
        <ele>2122.4</ele>
        <time>2020-08-30T15:46:23.333Z</time>
      </trkpt>
      <trkpt lat="42.50365" lon="2.44457">
        <ele>2122.9</ele>
        <time>2020-08-30T15:46:35.122Z</time>
      </trkpt>
      <trkpt lat="42.50368" lon="2.44461">
        <ele>2123.3</ele>
        <time>2020-08-30T15:46:44.293Z</time>
      </trkpt>
      <trkpt lat="42.5037" lon="2.44466">
        <ele>2123.6</ele>
        <time>2020-08-30T15:46:51.793Z</time>
      </trkpt>
      <trkpt lat="42.50372" lon="2.44471">
        <ele>2123.9</ele>
        <time>2020-08-30T15:46:59.294Z</time>
      </trkpt>
      <trkpt lat="42.50375" lon="2.44476">
        <ele>2124.5</ele>
        <time>2020-08-30T15:47:13.882Z</time>
      </trkpt>
      <trkpt lat="42.50378" lon="2.4448">
        <ele>2125</ele>
        <time>2020-08-30T15:47:25.656Z</time>
      </trkpt>
      <trkpt lat="42.50379" lon="2.44484">
        <ele>2125.4</ele>
        <time>2020-08-30T15:47:35.500Z</time>
      </trkpt>
      <trkpt lat="42.5038" lon="2.44501">
        <ele>2124.1</ele>
        <time>2020-08-30T15:47:38.004Z</time>
      </trkpt>
      <trkpt lat="42.50382" lon="2.4451">
        <ele>2124.7</ele>
        <time>2020-08-30T15:47:52.005Z</time>
      </trkpt>
      <trkpt lat="42.50387" lon="2.44521">
        <ele>2125.6</ele>
        <time>2020-08-30T15:48:12.657Z</time>
      </trkpt>
      <trkpt lat="42.50389" lon="2.44526">
        <ele>2125.8</ele>
        <time>2020-08-30T15:48:19.003Z</time>
      </trkpt>
      <trkpt lat="42.5039" lon="2.44531">
        <ele>2125.8</ele>
        <time>2020-08-30T15:48:22.358Z</time>
      </trkpt>
      <trkpt lat="42.5039" lon="2.44533">
        <ele>2125.8</ele>
        <time>2020-08-30T15:48:23.653Z</time>
      </trkpt>
    </trkseg>
  </trk>
</gpx>